Home > Products > Valid Products > MTR

000
SAUS46 KLOX 291658
MTR9L2
METAR K9L2 291655Z AUTO 00000KT 10SM CLR 30/04 A3010 RMK AO2 SLP170
T03000044 TSNO $





000
SAUS46 KLOX 291655
MTRLAX
METAR KLAX 291653Z 25008KT 10SM FEW140 SCT250 23/17 A3005 RMK AO2
SLP173 T02330172





000
SAUS46 KLOX 291654
MTRMWS
METAR KMWS 291645Z 29001G02KT 27/03 RMK SNOW DEPTH  M





000
SAUS46 KLOX 291652
MTRSMX
METAR KSMX 291651Z 33006KT 6SM HZ OVC004 19/16 A3008 RMK AO2 SLP187
T01940156 $





000
SAUS46 KLOX 291649
MTRSDB
METAR KSDB 291648Z AUTO 35010G14KT 330V040 10SM CLR 28/03 A3027 RMK
AO2 SLP185 T02830033





000
SAUS46 KLOX 291648
MTRCQT
METAR KCQT 291647Z AUTO 00000KT 10SM CLR 26/17 A3003 RMK AO2 SLP165
T02610172 $





000
SAUS46 KLOX 291636
MTRMWS
METAR KMWS 291630Z 23500G00KT MM/03 RMK SNOW DEPTH  M





000
SAUS46 KLOX 291615
MTRMWS
METAR KMWS 291600Z 26001G02KT 27/04 RMK SNOW DEPTH  M





000
SAUS46 KLOX 291556
MTR9L2
METAR K9L2 291555Z AUTO 19003KT 10SM CLR 27/04 A3011 RMK AO2 SLP174
T02720044 TSNO $





000
SAUS46 KLOX 291554
MTRLAX
METAR KLAX 291553Z 27005KT 10SM FEW140 SCT250 22/18 A3005 RMK AO2
SLP173 T02170178





000
SAUS46 KLOX 291554
MTRMWS
METAR KMWS 291545Z 26001G02KT 26/03 RMK SNOW DEPTH  M





000
SAUS46 KLOX 291553
MTRSMX
METAR KSMX 291551Z 29005KT 2SM BR OVC002 17/15 A3008 RMK AO2 SLP187
T01720150 $





000
SAUS46 KLOX 291549
MTRSDB
METAR KSDB 291548Z AUTO 36008KT 10SM CLR 27/03 A3028 RMK AO2 SLP189
T02670033





000
SAUS46 KLOX 291548
MTRCQT
METAR KCQT 291547Z AUTO VRB03KT 10SM CLR 25/17 A3003 RMK AO2 SLP167
T02500167 $





000
SAUS46 KLOX 291536
MTRMWS
METAR KMWS 291530Z 23500G00KT MM/03 RMK SNOW DEPTH  M





000
SAUS46 KLOX 291527
MTRSMX
SPECI KSMX 291526Z 31005KT 1 1/2SM BR OVC002 17/15 A3007 RMK AO2 $





000
SAUS46 KLOX 291518
MTRSMX
SPECI KSMX 291516Z 31004KT 1/2SM FG VV002 17/16 A3007 RMK AO2 $





000
SAUS46 KLOX 291515
MTRMWS
METAR KMWS 291500Z  0502G03KT 25/03 RMK SNOW DEPTH  M





000
SAUS46 KLOX 291457
MTR9L2
METAR K9L2 291455Z AUTO 00000KT 10SM CLR 23/04 A3011 RMK AO2 SLP176
T02280044 53012 TSNO $





000
SAUS46 KLOX 291454
MTRMWS
METAR KMWS 291445Z 32001G03KT 23/02 RMK SNOW DEPTH  M





000
SAUS46 KLOX 291454
MTRLAX
METAR KLAX 291453Z 24006KT 9SM FEW140 SCT220 SCT300 21/18 A3005 RMK
AO2 SLP173 T02110178 53009





000
SAUS46 KLOX 291452
MTRSMX
METAR KSMX 291451Z 26003KT 1/4SM FG VV002 17/15 A3007 RMK AO2 SLP183
T01670150 53013 $





000
SAUS46 KLOX 291449
MTRSDB
METAR KSDB 291448Z AUTO 35012KT 10SM OVC034 24/04 A3026 RMK AO2
SLP186 T02440039 53007





000
SAUS46 KLOX 291448
MTRCQT
METAR KCQT 291447Z AUTO 00000KT 10SM CLR 23/17 A3003 RMK AO2 SLP167
T02330167 53007 $





000
SAUS46 KLOX 291436
MTRMWS
METAR KMWS 291430Z 23500G00KT MM/02 RMK SNOW DEPTH  M





000
SAUS46 KLOX 291415
MTRMWS
METAR KMWS 291400Z 02502G03KT 21/02 RMK SNOW DEPTH  M





000
SAUS46 KLOX 291359
MTR9L2
METAR K9L2 291355Z AUTO 35004KT 10SM CLR 22/05 A3009 RMK AO2 SLP171
T02170050 TSNO $





000
SAUS46 KLOX 291354
MTRMWS
METAR KMWS 291345Z 01003G06KT 20/02 RMK SNOW DEPTH  M





000
SAUS46 KLOX 291354
MTRLAX
METAR KLAX 291353Z 27004KT 10SM FEW160 SCT220 SCT300 20/17 A3003 RMK
AO2 SLP166 T02000172 $





000
SAUS46 KLOX 291353
MTRSMX
METAR KSMX 291351Z 00000KT 1/4SM FG VV002 17/16 A3005 RMK AO2 SLP175
T01720156 $





000
SAUS46 KLOX 291349
MTRSDB
METAR KSDB 291348Z AUTO 33013KT 10SM BKN046 24/03 A3025 RMK AO2
SLP180 T02390033





000
SAUS46 KLOX 291348
MTRCQT
METAR KCQT 291347Z AUTO 00000KT 10SM CLR 21/16 A3002 RMK AO2 SLP163
T02060161 $





000
SAUS46 KLOX 291336
MTRMWS
METAR KMWS 291330Z 23500G00KT MM/02 RMK SNOW DEPTH  M





000
SAUS46 KLOX 291329
MTRSMX
SPECI KSMX 291327Z 00000KT 1/4SM FG VV002 17/16 A3004 RMK AO2 $





000
SAUS46 KLOX 291315
MTRMWS
METAR KMWS 291300Z 35501G02KT 18/04 RMK SNOW DEPTH  M





000
SAUS46 KLOX 291303
MTRSMX
SPECI KSMX 291303Z 00000KT 1 1/4SM BR OVC002 17/16 A3003 RMK AO2 $





000
SAUS46 KLOX 291256
MTR9L2
METAR K9L2 291255Z AUTO 00000KT 10SM CLR 20/04 A3008 RMK AO2 SLP168
T02000044 TSNO $





000
SAUS46 KLOX 291254
MTRMWS
METAR KMWS 291245Z 01500G01KT 19/04 RMK SNOW DEPTH  M





000
SAUS46 KLOX 291254
MTRLAX
METAR KLAX 291253Z VRB03KT 10SM FEW160 SCT220 SCT300 19/17 A3002 RMK
AO2 SLP164 T01940172 $





000
SAUS46 KLOX 291253
MTRSMX
METAR KSMX 291251Z AUTO 00000KT 2SM BR OVC002 17/16 A3003 RMK AO2
SLP169 T01720156 TSNO $





000
SAUS46 KLOX 291249
MTRSDB
METAR KSDB 291248Z AUTO 35011KT 10SM CLR 24/04 A3024 RMK AO2 SLP176
T02390044





000
SAUS46 KLOX 291248
MTRCQT
METAR KCQT 291247Z AUTO 00000KT 10SM CLR 20/16 A3001 RMK AO2 SLP159
T02000156 $





000
SAUS46 KLOX 291243
MTRSMX
SPECI KSMX 291242Z AUTO 00000KT 2 1/2SM BR OVC002 17/16 A3003 RMK
AO2 TSNO $





000
SAUS46 KLOX 291236
MTRMWS
METAR KMWS 291230Z 23500G00KT MM/04 RMK SNOW DEPTH  M





000
SAUS46 KLOX 291215
MTRMWS
METAR KMWS 291200Z 03501G02KT 18/03 RMK SNOW DEPTH  M





000
SAUS46 KLOX 291157
MTR9L2
METAR K9L2 291155Z AUTO 35005KT 10SM CLR 20/04 A3007 RMK AO2 SLP164
7//// T02000044 10294 20200 56000 TSNO $





000
SAUS46 KLOX 291154
MTRMWS
METAR KMWS 291145Z 03003G03KT 18/03 RMK SNOW DEPTH  M





000
SAUS46 KLOX 291154
MTRLAX
METAR KLAX 291153Z 16003KT 10SM CLR 19/17 A3002 RMK AO2 SLP164
T01940172 10217 20194 53001 $





000
SAUS46 KLOX 291153
MTRSMX
METAR KSMX 291151Z AUTO 00000KT 4SM BR OVC004 18/16 A3003 RMK AO2
SLP169 T01780156 10189 20172 56007 TSNO $





000
SAUS46 KLOX 291149
MTRSDB
METAR KSDB 291148Z AUTO 35010KT 10SM CLR 23/04 A3024 RMK AO2 SLP174
T02280044 10256 20228 57003





000
SAUS46 KLOX 291148
MTRCQT
METAR KCQT 291147Z AUTO 00000KT 10SM CLR 21/16 A3001 RMK AO2 SLP160
T02060161 10222 20206 56000 $





000
SAUS46 KLOX 291136
MTRMWS
METAR KMWS 291130Z 23500G00KT MM/03 RMK SNOW DEPTH  M





000
SAUS46 KLOX 291115
MTRMWS
METAR KMWS 291100Z 03002G03KT 19/03 RMK SNOW DEPTH  M





000
SAUS46 KLOX 291056
MTR9L2
METAR K9L2 291055Z AUTO 00000KT 10SM CLR 22/06 A3007 RMK AO2 SLP162
T02220056 $





000
SAUS46 KLOX 291054
MTRMWS
METAR KMWS 291045Z 04503G03KT 20/03 RMK SNOW DEPTH  M





000
SAUS46 KLOX 291054
MTRLAX
METAR KLAX 291053Z 00000KT 10SM CLR 20/17 A3002 RMK AO2 SLP163
T02000167 $





000
SAUS46 KLOX 291053
MTRSMX
METAR KSMX 291051Z AUTO 00000KT 5SM HZ OVC004 18/16 A3004 RMK AO2
SLP171 T01830156 TSNO $





000
SAUS46 KLOX 291049
MTRSDB
METAR KSDB 291048Z AUTO 32010KT 10SM CLR 23/04 A3024 RMK AO2 SLP175
T02330044





000
SAUS46 KLOX 291048
MTRCQT
METAR KCQT 291047Z AUTO 00000KT 10SM CLR 21/16 A3002 RMK AO2 SLP161
T02110161 $





000
SAUS46 KLOX 291036
MTRMWS
METAR KMWS 291030Z 23500G00KT MM/03 RMK SNOW DEPTH  M





000
SAUS46 KLOX 291015
MTRMWS
METAR KMWS 291000Z 05003G03KT 19/03 RMK SNOW DEPTH  M





000
SAUS46 KLOX 290959
MTR9L2
METAR K9L2 290955Z AUTO 19005KT 10SM CLR 23/06 A3007 RMK AO2 SLP161
T02330056 $





000
SAUS46 KLOX 290954
MTRMWS
METAR KMWS 290945Z 05003G05KT 19/03 RMK SNOW DEPTH  M





000
SAUS46 KLOX 290954
MTRLAX
METAR KLAX 290953Z 00000KT 10SM CLR 21/16 A3002 RMK AO2 SLP162
T02060156 $





000
SAUS46 KLOX 290952
MTRSMX
METAR KSMX 290951Z AUTO 00000KT 5SM BR OVC004 18/16 A3004 RMK AO2
SLP173 T01780156 TSNO $





000
SAUS46 KLOX 290949
MTRSDB
METAR KSDB 290948Z AUTO 33008KT 10SM CLR 23/04 A3025 RMK AO2 SLP175
T02280044





000
SAUS46 KLOX 290948
MTRCQT
METAR KCQT 290947Z AUTO 00000KT 10SM CLR 22/17 A3001 RMK AO2 SLP158
T02170167 $





000
SAUS46 KLOX 290936
MTRMWS
METAR KMWS 290930Z 23500G00KT MM/03 RMK SNOW DEPTH  M





000
SAUS46 KLOX 290915
MTRMWS
METAR KMWS 290900Z 04001G03KT 20/04 RMK SNOW DEPTH  M





000
SAUS46 KLOX 290857
MTR9L2
METAR K9L2 290855Z AUTO 21005KT 10SM CLR 25/06 A3007 RMK AO2 SLP161
T02500061 50000 $





000
SAUS46 KLOX 290855
MTRLAX
METAR KLAX 290853Z 10004KT 10SM CLR 20/16 A3002 RMK AO2 SLP162
T02000161 57001 $





000
SAUS46 KLOX 290854
MTRMWS
METAR KMWS 290845Z 13500G02KT 20/04 RMK SNOW DEPTH  M





000
SAUS46 KLOX 290852
MTRSMX
METAR KSMX 290851Z AUTO 30003KT 6SM BR BKN006 17/15 A3005 RMK AO2
SLP175 T01720150 56004 TSNO $





000
SAUS46 KLOX 290849
MTRSDB
METAR KSDB 290848Z AUTO 34010G19KT 10SM CLR 24/04 A3025 RMK AO2
SLP176 T02440044 58000





000
SAUS46 KLOX 290849
MTRCQT
METAR KCQT 290847Z AUTO 00000KT 10SM CLR 22/17 A3001 RMK AO2 SLP159
T02220172 56002 $





000
SAUS46 KLOX 290848
MTRSMX
SPECI KSMX 290847Z AUTO 31003KT 6SM BR BKN006 17/15 A3005 RMK AO2
TSNO $





000
SAUS46 KLOX 290836
MTRMWS
METAR KMWS 290830Z 23500G00KT MM/03 RMK SNOW DEPTH  M





000
SAUS46 KLOX 290832
MTRSMX
SPECI KSMX 290831Z AUTO 00000KT 7SM SCT006 18/15 A3005 RMK AO2 TSNO
$





000
SAUS46 KLOX 290815
MTRMWS
METAR KMWS 290800Z 01001G03KT 20/03 RMK SNOW DEPTH  M





000
SAUS46 KLOX 290759
MTR9L2
METAR K9L2 290755Z AUTO 21007KT 10SM CLR 26/06 A3008 RMK AO2 SLP164
T02610061 403440256 $





000
SAUS46 KLOX 290754
MTRMWS
METAR KMWS 290745Z 35503G05KT 21/05 RMK SNOW DEPTH  M





000
SAUS46 KLOX 290754
MTRLAX
METAR KLAX 290753Z 15004KT 10SM FEW300 21/16 A3002 RMK AO2 SLP164
T02060161 402670200 $





000
SAUS46 KLOX 290753
MTRSMX
METAR KSMX 290751Z AUTO 00000KT 7SM OVC006 18/16 A3006 RMK AO2
SLP178 T01830156 402940178 TSNO $





000
SAUS46 KLOX 290749
MTRSDB
METAR KSDB 290748Z AUTO 34010KT 10SM CLR 23/04 A3026 RMK AO2 SLP181
T02330039 403330206





000
SAUS46 KLOX 290749
MTRCQT
METAR KCQT 290747Z AUTO VRB03KT 10SM CLR 22/17 A3001 RMK AO2 SLP160
T02220167 403110200 $





000
SAUS46 KLOX 290736
MTRMWS
METAR KMWS 290730Z 23500G00KT MM/06 RMK SNOW DEPTH  M





000
SAUS46 KLOX 290715
MTRMWS
METAR KMWS 290700Z 35003G05KT 20/05 RMK SNOW DEPTH  M





000
SAUS46 KLOX 290657
MTR9L2
METAR K9L2 290655Z AUTO 36005KT 10SM CLR 29/10 A3007 RMK AO2 SLP160
T02890100 $





000
SAUS46 KLOX 290654
MTRMWS
METAR KMWS 290645Z 34502G03KT 20/05 RMK SNOW DEPTH  M





000
SAUS46 KLOX 290654
MTRLAX
METAR KLAX 290653Z 00000KT 10SM FEW300 21/16 A3002 RMK AO2 SLP161
T02060161 $





000
SAUS46 KLOX 290653
MTRSMX
METAR KSMX 290651Z AUTO 00000KT 8SM OVC006 18/16 A3006 RMK AO2
SLP180 T01830156 TSNO $





000
SAUS46 KLOX 290649
MTRSDB
METAR KSDB 290648Z AUTO VRB04KT 10SM CLR 25/03 A3025 RMK AO2 SLP178
T02500033





000
SAUS46 KLOX 290648
MTRCQT
METAR KCQT 290647Z AUTO 10003KT 10SM CLR 22/17 A3001 RMK AO2 SLP159
T02170167 $





000
SAUS46 KLOX 290636
MTRMWS
METAR KMWS 290630Z 23500G00KT MM/06 RMK SNOW DEPTH  M





000
SAUS46 KLOX 290615
MTRMWS
METAR KMWS 290600Z 02004G05KT 21/06 RMK SNOW DEPTH  M





000
SAUS46 KLOX 290606
MTRSMX
SPECI KSMX 290605Z AUTO 00000KT 7SM BKN006 18/16 A3008 RMK AO2 TSNO
$





000
SAUS46 KLOX 290559
MTR9L2
METAR K9L2 290555Z AUTO 01009KT 10SM CLR 29/10 A3008 RMK AO2 SLP160
T02940100 10339 20294 50011 $





000
SAUS46 KLOX 290554
MTRLAX
METAR KLAX 290553Z 24007KT 10SM CLR 21/17 A3002 RMK AO2 SLP163
T02060172 10256 20206 50006 $





000
SAUS46 KLOX 290554
MTRMWS
METAR KMWS 290545Z  0503G05KT 21/06 RMK SNOW DEPTH  M





000
SAUS46 KLOX 290552
MTRSMX
METAR KSMX 290551Z AUTO 00000KT 7SM SCT006 18/16 A3008 RMK AO2
SLP185 T01830156 10267 20178 50010 TSNO $





000
SAUS46 KLOX 290549
MTRSDB
METAR KSDB 290548Z AUTO 34016KT 10SM CLR 24/03 A3025 RMK AO2 SLP177
T02440033 10317 20239 50002





000
SAUS46 KLOX 290548
MTRCQT
METAR KCQT 290547Z AUTO 00000KT 10SM CLR 21/17 A3002 RMK AO2 SLP163
T02110167 10289 20211 51009 $





000
SAUS46 KLOX 290536
MTRMWS
METAR KMWS 290530Z 23500G00KT MM/05 RMK SNOW DEPTH  M





000
SAUS46 KLOX 290517
MTRSMX
SPECI KSMX 290515Z AUTO 27003KT 7SM BKN006 18/16 A3008 RMK AO2 TSNO
$





000
SAUS46 KLOX 290515
MTRMWS
METAR KMWS 290500Z 16002G03KT 20/05 RMK SNOW DEPTH  M





000
SAUS46 KLOX 290501
MTRSMX
SPECI KSMX 290500Z AUTO 00000KT 7SM SCT006 18/15 A3008 RMK AO2 TSNO
$





000
SAUS46 KLOX 290457
MTR9L2
METAR K9L2 290455Z AUTO 30004KT 10SM BKN100 30/04 A3008 RMK AO2
SLP162 T03000044 $





000
SAUS46 KLOX 290455
MTRLAX
METAR KLAX 290453Z 25009KT 10SM FEW150 21/17 A3003 RMK AO2 SLP166
T02060172 $





000
SAUS46 KLOX 290454
MTRMWS
METAR KMWS 290445Z 07001G03KT 20/05 RMK SNOW DEPTH  M





000
SAUS46 KLOX 290452
MTRSMX
METAR KSMX 290451Z AUTO 00000KT 8SM CLR 18/15 A3008 RMK AO2 SLP185
T01830150 TSNO $





000
SAUS46 KLOX 290449
MTRSDB
METAR KSDB 290448Z AUTO 33010KT 10SM FEW120 25/04 A3026 RMK AO2
SLP183 T02500039





000
SAUS46 KLOX 290448
MTRCQT
METAR KCQT 290447Z AUTO 00000KT 10SM CLR 22/17 A3002 RMK AO2 SLP161
T02170172 $





000
SAUS46 KLOX 290436
MTRMWS
METAR KMWS 290430Z 23500G00KT MM/05 RMK SNOW DEPTH  M





000
SAUS46 KLOX 290415
MTRMWS
METAR KMWS 290400Z 34001G03KT 21/06 RMK SNOW DEPTH  M





000
SAUS46 KLOX 290408
MTRSMX
SPECI KSMX 290407Z AUTO 33003KT 8SM FEW007 18/16 A3007 RMK AO2 TSNO
$





000
SAUS46 KLOX 290357
MTR9L2
METAR K9L2 290355Z AUTO 28008KT 10SM OVC095 31/04 A3006 RMK AO2
SLP156 T03110044 TSNO $





000
SAUS46 KLOX 290355
MTRLAX
METAR KLAX 290353Z 27010KT 10SM FEW150 21/18 A3001 RMK AO2 SLP160
T02060178 $





000
SAUS46 KLOX 290354
MTRMWS
METAR KMWS 290345Z 32500G01KT 21/06 RMK SNOW DEPTH  M





000
SAUS46 KLOX 290353
MTRSMX
METAR KSMX 290351Z AUTO 31004KT 8SM CLR 19/16 A3006 RMK AO2 SLP182
T01890156 TSNO $





000
SAUS46 KLOX 290349
MTRSDB
METAR KSDB 290348Z AUTO 33014G19KT 10SM FEW110 25/04 A3025 RMK AO2
SLP182 T02500044





000
SAUS46 KLOX 290348
MTRCQT
METAR KCQT 290347Z AUTO 28003KT 10SM CLR 22/17 A3000 RMK AO2 SLP156
T02220172 $





000
SAUS46 KLOX 290339
MTRSMX
SPECI KSMX 290337Z AUTO 30004G37KT 8SM CLR 19/16 A3006 RMK AO2 TSNO
$





000
SAUS46 KLOX 290336
MTRMWS
METAR KMWS 290330Z 23500G00KT MM/06 RMK SNOW DEPTH  M





000
SAUS46 KLOX 290315
MTRMWS
METAR KMWS 290300Z 32502G03KT 21/06 RMK SNOW DEPTH  M





000
SAUS46 KLOX 290257
MTR9L2
METAR K9L2 290255Z AUTO 28010KT 10SM BKN090 32/04 A3004 RMK AO2
SLP149 T03170044 55000 TSNO $





000
SAUS46 KLOX 290254
MTRLAX
METAR KLAX 290253Z 27012KT 8SM FEW007 SCT150 SCT250 21/18 A3000 RMK
AO2 SLP157 T02110183 53002 VISNO RWY24 $





000
SAUS46 KLOX 290254
MTRMWS
METAR KMWS 290245Z 04000G01KT 23/07 RMK SNOW DEPTH  M





000
SAUS46 KLOX 290252
MTRSMX
METAR KSMX 290251Z AUTO 35009G39KT 8SM CLR 20/16 A3005 RMK AO2
SLP175 T02000156 53007 TSNO $





000
SAUS46 KLOX 290249
MTRSDB
METAR KSDB 290248Z AUTO VRB05G14KT 10SM CLR 26/06 A3024 RMK AO2
SLP182 T02560056 53003





000
SAUS46 KLOX 290248
MTRCQT
METAR KCQT 290247Z AUTO VRB04KT 10SM CLR 23/16 A2999 RMK AO2 SLP154
T02330156 53003 $





000
SAUS46 KLOX 290236
MTRMWS
METAR KMWS 290230Z 23500G00KT MM/06 RMK SNOW DEPTH  M





000
SAUS46 KLOX 290215
MTRMWS
METAR KMWS 290200Z 31002G04KT 26/07 RMK SNOW DEPTH  M





000
SAUS46 KLOX 290157
MTR9L2
METAR K9L2 290155Z AUTO 30014KT 10SM CLR 33/08 A3003 RMK AO2 SLP145
T03280078 TSNO $





000
SAUS46 KLOX 290155
MTRLAX
METAR KLAX 290153Z 25014KT 9SM FEW009 SCT150 SCT250 22/18 A2999 RMK
AO2 SLP152 T02220183 $





000
SAUS46 KLOX 290154
MTRMWS
METAR KMWS 290145Z 29501G03KT 26/07 RMK SNOW DEPTH  M





000
SAUS46 KLOX 290152
MTRSMX
METAR KSMX 290151Z 31007KT 9SM FEW200 23/16 A3003 RMK AO2 SLP170
T02280156 $





000
SAUS46 KLOX 290149
MTRCQT
METAR KCQT 290147Z AUTO 27006KT 10SM CLR 27/10 A2997 RMK AO2 SLP147
T02670100 $





000
SAUS46 KLOX 290149
MTRSDB
METAR KSDB 290148Z AUTO 35008G16KT 10SM CLR 28/07 A3023 RMK AO2
SLP176 T02830072





000
SAUS46 KLOX 290136
MTRMWS
METAR KMWS 290130Z 23500G00KT MM/08 RMK SNOW DEPTH  M





000
SAUS46 KLOX 290115
MTRMWS
METAR KMWS 290100Z 22002G04KT 30/09 RMK SNOW DEPTH  M





000
SAUS46 KLOX 290057
MTR9L2
METAR K9L2 290055Z AUTO VRB03KT 10SM BKN090 33/10 A3002 RMK AO2
SLP142 T03330100 $





000
SAUS46 KLOX 290054
MTRMWS
METAR KMWS 290045Z 28002G05KT 30/08 RMK SNOW DEPTH  M





000
SAUS46 KLOX 290054
MTRLAX
METAR KLAX 290053Z 26012KT 10SM FEW150 SCT250 24/16 A2999 RMK AO2
SLP152 T02390161 $





000
SAUS46 KLOX 290052
MTRSMX
METAR KSMX 290051Z 32008KT 10SM SCT200 25/16 A3003 RMK AO2 SLP169
T02500156 $





000
SAUS46 KLOX 290049
MTRSDB
METAR KSDB 290048Z AUTO 34017KT 10SM CLR 28/07 A3023 RMK AO2 SLP174
T02830072





000
SAUS46 KLOX 290048
MTRCQT
METAR KCQT 290047Z AUTO VRB05KT 10SM CLR 28/06 A2997 RMK AO2 SLP146
T02830061 $





000
SAUS46 KLOX 290036
MTRMWS
METAR KMWS 290030Z 23500G00KT MM/09 RMK SNOW DEPTH  M





000
SAUS46 KLOX 290015
MTRMWS
METAR KMWS 290000Z 22503G05KT 30/09 RMK SNOW DEPTH  M





000
SAUS46 KLOX 282357
MTR9L2
METAR K9L2 282355Z AUTO 30008KT 10SM FEW100 33/10 A3004 RMK AO2
SLP149 T03330100 10344 20306 56015 $





000
SAUS46 KLOX 282355
MTRLAX
METAR KLAX 282353Z 28011KT 10SM FEW090 SCT150 SCT250 25/13 A2999 RMK
AO2 SLP155 60097 T02500133 10267 20228 58019 $





000
SAUS46 KLOX 282354
MTRMWS
METAR KMWS 282345Z 24005G07KT 31/09 RMK SNOW DEPTH  M





000
SAUS46 KLOX 282352
MTRSMX
METAR KSMX 282351Z 30009KT 9SM BKN200 26/16 A3003 RMK AO2 SLP168
T02610156 10294 20206 58012 $





000
SAUS46 KLOX 282350
MTRSDB
METAR KSDB 282348Z AUTO 35011G21KT 10SM CLR 31/06 A3023 RMK AO2
WSHFT 2334 SLP172 T03110061 10333 20294 58008





000
SAUS46 KLOX 282349
MTRCQT
METAR KCQT 282347Z AUTO VRB06KT 10SM CLR 28/08 A2998 RMK AO2 SLP150
T02830083 10311 20261 58015 $





000
SAUS46 KLOX 282336
MTRMWS
METAR KMWS 282330Z 23500G00KT MM/09 RMK SNOW DEPTH  M





000
SAUS46 KLOX 282315
MTRMWS
METAR KMWS 282300Z 24004G06KT 27/09 RMK SNOW DEPTH  M





000
SAUS46 KLOX 282257
MTR9L2
METAR K9L2 282255Z AUTO 30009KT 10SM CLR 34/10 A3005 RMK AO2 SLP152
T03390100 $





000
SAUS46 KLOX 282254
MTRMWS
METAR KMWS 282245Z 22506G08KT 27/10 RMK SNOW DEPTH  M





000
SAUS46 KLOX 282254
MTRLAX
METAR KLAX 282253Z 28012KT 10SM FEW090 SCT150 SCT250 24/14 A3002 RMK
AO2 SLP163 T02440144 $





000
SAUS46 KLOX 282252
MTRSMX
METAR KSMX 282251Z 30010KT 9SM BKN200 26/16 A3004 RMK AO2 SLP172
T02610161 $





000
SAUS46 KLOX 282249
MTRSDB
METAR KSDB 282248Z AUTO 16008KT 10SM FEW090 31/02 A3024 RMK AO2
SLP176 T03110022





000
SAUS46 KLOX 282249
MTRCQT
METAR KCQT 282247Z AUTO 25005KT 10SM CLR 28/12 A3000 RMK AO2 SLP158
T02780117 $





000
SAUS46 KLOX 282236
MTRMWS
METAR KMWS 282230Z 23500G00KT MM/09 RMK SNOW DEPTH  M





000
SAUS46 KLOX 282215
MTRMWS
METAR KMWS 282200Z 25002G06KT 30/08 RMK SNOW DEPTH  M





000
SAUS46 KLOX 282157
MTR9L2
METAR K9L2 282155Z AUTO 33005KT 10SM SCT095 33/10 A3007 RMK AO2
SLP159 T03330100 TSNO $





000
SAUS46 KLOX 282154
MTRMWS
METAR KMWS 282145Z 25003G06KT 28/07 RMK SNOW DEPTH  M





000
SAUS46 KLOX 282154
MTRLAX
METAR KLAX 282153Z 26014KT 10SM FEW090 SCT160 BKN250 24/16 A3004 RMK
AO2 SLP170 FG BANK NW T02440156 $





000
SAUS46 KLOX 282153
MTRSMX
METAR KSMX 282151Z 29008KT 9SM BKN200 25/16 A3005 RMK AO2 SLP177
T02500156 $





000
SAUS46 KLOX 282149
MTRSDB
METAR KSDB 282148Z AUTO 15010KT 10SM BKN120 32/03 A3025 RMK AO2
SLP177 T03220033





000
SAUS46 KLOX 282148
MTRCQT
METAR KCQT 282147Z AUTO VRB04KT 10SM CLR 29/12 A3002 RMK AO2 SLP161
T02890122 $





000
SAUS46 KLOX 282136
MTRMWS
METAR KMWS 282130Z 23500G00KT MM/07 RMK SNOW DEPTH  M





000
SAUS46 KLOX 282115
MTRMWS
METAR KMWS 282100Z 23502G04KT 29/06 RMK SNOW DEPTH  M





000
SAUS46 KLOX 282057
MTR9L2
METAR K9L2 282055Z AUTO 00000KT 10SM CLR 33/09 A3009 RMK AO2 SLP164
T03330089 58010 TSNO $





000
SAUS46 KLOX 282057
MTRMWS
METAR KMWS 282045Z 28501G03KT 27/05 RMK SNOW DEPTH  M





000
SAUS46 KLOX 282054
MTRLAX
METAR KLAX 282053Z 27012KT 10SM FEW025 SCT100 SCT160 BKN250 25/17
A3005 RMK AO2 SLP175 60097 T02500167 $





000
SAUS46 KLOX 282052
MTRSMX
METAR KSMX 282051Z 31006KT 10SM BKN200 29/16 A3006 RMK AO2 SLP179
T02940161 58012 $





000
SAUS46 KLOX 282049
MTRSDB
METAR KSDB 282048Z AUTO 17009G14KT 10SM CLR 31/03 A3026 RMK AO2
SLP181 T03110028 58005





000
SAUS46 KLOX 282048
MTRCQT
METAR KCQT 282047Z AUTO 23004KT 10SM CLR 31/12 A3003 RMK AO2 SLP164
T03060117 58011 $





000
SAUS46 KLOX 282036
MTRMWS
METAR KMWS 282030Z 23500G00KT MM/05 RMK SNOW DEPTH  M





000
SAUS46 KLOX 282015
MTRMWS
METAR KMWS 282000Z 23502G04KT 25/04 RMK SNOW DEPTH  M





000
SAUS46 KLOX 281957
MTR9L2
METAR K9L2 281955Z AUTO 11003KT 10SM FEW085 32/08 A3010 RMK AO2
SLP170 T03220083 TSNO $





000
SAUS46 KLOX 281954
MTRMWS
METAR KMWS 281945Z 27501G03KT 26/04 RMK SNOW DEPTH  M





000
SAUS46 KLOX 281954
MTRLAX
METAR KLAX 281953Z 26010KT 10SM FEW010 SCT090 SCT160 BKN250 25/17
A3006 RMK AO2 SLP178 T02500167 $





000
SAUS46 KLOX 281953
MTRSMX
METAR KSMX 281951Z VRB06KT 10SM BKN150 27/16 A3008 RMK AO2 SLP186
T02720161 $





000
SAUS46 KLOX 281949
MTRSDB
METAR KSDB 281948Z AUTO 17010KT 10SM CLR 31/03 A3027 RMK AO2 SLP184
T03060033





000
SAUS46 KLOX 281948
MTRCQT
METAR KCQT 281947Z AUTO 20004KT 10SM CLR 30/11 A3004 RMK AO2 SLP169
T03000111 $





000
SAUS46 KLOX 281936
MTRMWS
METAR KMWS 281930Z 23500G00KT MM/03 RMK SNOW DEPTH  M





000
SAUS46 KLOX 281915
MTRMWS
METAR KMWS 281900Z 20002G04KT 24/02 RMK SNOW DEPTH  M





000
SAUS46 KLOX 281856
MTR9L2
METAR K9L2 281855Z AUTO 00000KT 10SM OVC075 31/10 A3012 RMK AO2
SLP173 T03110100 $





000
SAUS46 KLOX 281854
MTRMWS
METAR KMWS 281845Z 20004G06KT 25/03 RMK SNOW DEPTH  M





000
SAUS46 KLOX 281854
MTRLAX
METAR KLAX 281853Z 26006KT 10SM FEW015 SCT090 BKN140 BKN250 27/13
A3006 RMK AO2 SLP178 P0097 T02670128 $





000
SAUS46 KLOX 281853
MTRSMX
METAR KSMX 281851Z VRB03KT 10SM BKN140 26/16 A3009 RMK AO2 SLP189
T02560156 $





000
SAUS46 KLOX 281849
MTRSDB
METAR KSDB 281848Z AUTO 17011G15KT 10SM CLR 31/04 A3028 RMK AO2
SLP185 T03060039





000
SAUS46 KLOX 281848
MTRCQT
METAR KCQT 281847Z AUTO VRB03KT 10SM CLR 28/16 A3005 RMK AO2 SLP173
T02830161 $





000
SAUS46 KLOX 281836
MTRMWS
METAR KMWS 281830Z 23500G00KT MM/03 RMK SNOW DEPTH  M





000
SAUS46 KLOX 281757
MTR9L2
METAR K9L2 281755Z AUTO 28003KT 10SM CLR 31/10 A3012 RMK AO2 SLP176
6//// T03060100 10311 20256 $





000
SAUS46 KLOX 281754
MTRLAX
METAR KLAX 281753Z 26006KT 10SM FEW010 SCT090 BKN120 BKN250 23/18
A3008 RMK AO2 SLP183 T02280178 10228 20200 51005 $





000
SAUS46 KLOX 281754
MTRMWS
METAR KMWS 281745Z 23500G00KT MM/03 RMK SNOW DEPTH  M





000
SAUS46 KLOX 281752
MTRSMX
METAR KSMX 281751Z 31003KT 7SM FEW009 BKN140 21/16 A3010 RMK AO2
SLP193 60000 T02060161 10206 20178 51013 $





000
SAUS46 KLOX 281749
MTRSDB
METAR KSDB 281748Z AUTO 19006KT 10SM CLR 31/04 A3028 RMK AO2 SLP183
T03060039 10306 20206 51006





000
SAUS46 KLOX 281748
MTRCQT
METAR KCQT 281747Z AUTO VRB03KT 10SM CLR 26/16 A3006 RMK AO2 SLP176
60000 T02610156 10261 20200 50005 $





000
SAUS46 KLOX 281736
MTRMWS
METAR KMWS 281730Z 23500G00KT MM/03 RMK SNOW DEPTH  M





000
SAUS46 KLOX 281715
MTRMWS
METAR KMWS 281700Z 23500G00KT MM/03 RMK SNOW DEPTH  M





000
SAUS46 KLOX 281657
MTR9L2
METAR K9L2 281655Z AUTO 03003KT 10SM FEW090 29/05 A3012 RMK AO2
SLP178 T02940050 $





000
SAUS46 KLOX 281655
MTRLAX
METAR KLAX 281653Z COR 27008KT 10SM FEW009 SCT090 BKN120 BKN250
22/18 A3008 RMK AO2 SLP183 T02220178 $





000
SAUS46 KLOX 281654
MTRMWS
METAR KMWS 281645Z 05502G04KT 26/05 RMK SNOW DEPTH  M





000
SAUS46 KLOX 281653
MTRSMX
METAR KSMX 281651Z 31004KT 5SM HZ BKN007 BKN100 20/16 A3009 RMK AO2
RAB10E20 SLP190 P0000 T02000161 $





000
SAUS46 KLOX 281649
MTRSDB
METAR KSDB 281648Z AUTO 19004KT 10SM FEW120 28/03 A3028 RMK AO2
SLP187 T02780033





000
SAUS46 KLOX 281648
MTRCQT
METAR KCQT 281647Z AUTO 28004KT 10SM CLR 25/17 A3006 RMK AO2 SLP177
T02500172 $





000
SAUS46 KLOX 281636
MTRMWS
METAR KMWS 281630Z 23500G00KT MM/03 RMK SNOW DEPTH  M





000
SAUS46 KLOX 281615
MTRMWS
METAR KMWS 281600Z 04526G28KT 22/04 RMK SNOW DEPTH  M





000
SAUS46 KLOX 281556
MTR9L2
METAR K9L2 281555Z AUTO 31004KT 10SM 28/04 A3012 RMK AO2 SLP177
T02780044 TSNO $





000
SAUS46 KLOX 281554
MTRLAX
METAR KLAX 281553Z 26006KT 9SM FEW008 SCT080 BKN120 BKN220 22/18
A3007 RMK AO2 SLP180 T02220178 $





000
SAUS46 KLOX 281554
MTRMWS
METAR KMWS 281545Z 23505G08KT 22/03 RMK SNOW DEPTH  M





000
SAUS46 KLOX 281553
MTRSMX
METAR KSMX 281551Z VRB03KT 5SM HZ SCT005 SCT095 BKN110 19/16 A3008
RMK AO2 RAE51 SLP186 P0000 T01890161 $





000
SAUS46 KLOX 281549
MTRSDB
METAR KSDB 281548Z AUTO 23005KT 10SM BKN110 24/02 A3027 RMK AO2
SLP191 T02440017





000
SAUS46 KLOX 281548
MTRCQT
METAR KCQT 281547Z AUTO 00000KT 10SM CLR 25/17 A3005 RMK AO2 SLP174
T02500172 $





000
SAUS46 KLOX 281536
MTRMWS
METAR KMWS 281530Z 23500G00KT MM/02 RMK SNOW DEPTH  M





000
SAUS46 KLOX 281515
MTRMWS
METAR KMWS 281500Z 24005G07KT 21/03 RMK SNOW DEPTH  M





000
SAUS46 KLOX 281458
MTR9L2
METAR K9L2 281455Z AUTO 21005KT 10SM BKN090 27/03 A3011 RMK AO2
SLP172 T02670028 51018 $





000
SAUS46 KLOX 281454
MTRMWS
METAR KMWS 281445Z 25004G05KT 20/03 RMK SNOW DEPTH  M





000
SAUS46 KLOX 281454
MTRLAX
METAR KLAX 281453Z 22003KT 10SM FEW008 SCT080 BKN120 BKN220 22/17
A3006 RMK AO2 SLP177 CB DSNT S T02170172 53008 $





000
SAUS46 KLOX 281452
MTRSMX
METAR KSMX 281451Z 32003KT 5SM -RA FEW008 BKN090 BKN110 18/16 A3006
RMK AO2 RAB05E19B49 SLP180 P0000 60000 T01830156 51014 $





000
SAUS46 KLOX 281449
MTRSDB
METAR KSDB 281448Z AUTO 24005KT 10SM SCT110 23/03 A3026 RMK AO2
SLP186 T02330033 53008





000
SAUS46 KLOX 281448
MTRCQT
METAR KCQT 281447Z AUTO 00000KT 10SM CLR 23/17 A3004 RMK AO2 SLP171
60000 T02280172 53006 $





000
SAUS46 KLOX 281436
MTRMWS
METAR KMWS 281430Z 23500G00KT MM/04 RMK SNOW DEPTH  M





000
SAUS46 KLOX 281415
MTRMWS
METAR KMWS 281400Z 25007G08KT 20/01 RMK SNOW DEPTH  M





000
SAUS46 KLOX 281358
MTR9L2
METAR K9L2 281355Z AUTO 11006KT 10SM OVC080 26/08 A3010 RMK AO2
SLP169 T02560078 $





000
SAUS46 KLOX 281357
MTRMWS
METAR KMWS 281345Z 24504G06KT 20/01 RMK SNOW DEPTH  M





000
SAUS46 KLOX 281354
MTRLAX
METAR KLAX 281353Z 00000KT 9SM FEW007 SCT070 BKN120 BKN160 BKN220
21/18 A3004 RMK AO2 SLP170 VIRGA SE-S CB DSNT SW TCU DSNT N-NE
T02060178 $





000
SAUS46 KLOX 281353
MTRSMX
METAR KSMX 281351Z 00000KT 6SM HZ BKN110 18/16 A3005 RMK AO2
RAB36E49 SLP176 P0000 T01830156 $





000
SAUS46 KLOX 281349
MTRSDB
METAR KSDB 281348Z AUTO 21006KT 10SM CLR 22/02 A3024 RMK AO2 SLP181
T02170017





000
SAUS46 KLOX 281348
MTRCQT
METAR KCQT 281347Z AUTO 00000KT 10SM FEW095 FEW110 21/17 A3003 RMK
AO2 SLP167 T02110172 $





000
SAUS46 KLOX 281336
MTRMWS
METAR KMWS 281330Z 23500G00KT MM/03 RMK SNOW DEPTH  M





000
SAUS46 KLOX 281315
MTRMWS
METAR KMWS 281300Z 24504G05KT 20/05 RMK SNOW DEPTH  M





000
SAUS46 KLOX 281258
MTR9L2
METAR K9L2 281255Z AUTO 00000KT 10SM OVC090 27/03 A3007 RMK AO2
SLP156 T02720033 $





000
SAUS46 KLOX 281257
MTRSMX
METAR KSMX 281251Z COR 00000KT 7SM BKN120 18/15 A3004 RMK AO2 SLP171
T01830150 $





000
SAUS46 KLOX 281255
MTRLAX
METAR KLAX 281253Z 00000KT 10SM FEW007 SCT011 SCT070 BKN130 BKN160
21/18 A3004 RMK AO2 SLP169 CB DSNT SW TCU DSNT N AND NE T02060183 $





000
SAUS46 KLOX 281254
MTRMWS
METAR KMWS 281245Z 23500G00KT MM/06 RMK SNOW DEPTH  M





000
SAUS46 KLOX 281252
MTRSMX
METAR KSMX 281251Z 00000KT 7SM CLR 18/15 A3004 RMK AO2 SLP171
T01830150 $





000
SAUS46 KLOX 281249
MTRSDB
METAR KSDB 281248Z AUTO 23004KT 10SM CLR 21/01 A3023 RMK AO2 SLP176
T02110011





000
SAUS46 KLOX 281248
MTRCQT
METAR KCQT 281247Z AUTO 00000KT 10SM FEW100 20/17 A3003 RMK AO2
RAB20E29 SLP167 P0000 T02000172 $





000
SAUS46 KLOX 281236
MTRMWS
METAR KMWS 281230Z 23500G00KT MM/05 RMK SNOW DEPTH  M





000
SAUS46 KLOX 281226
MTRLAX
SPECI KLAX 281225Z 00000KT 9SM FEW007 SCT011 SCT070 BKN130 BKN160
21/18 A3004 RMK AO2 SCT011 V BKN CB DSNT SW TCU DSNT N AND NE $





000
SAUS46 KLOX 281215
MTRMWS
METAR KMWS 281200Z 27002G04KT 20/05 RMK SNOW DEPTH  M





000
SAUS46 KLOX 281158
MTR9L2
METAR K9L2 281155Z AUTO 26006KT 10SM SCT100 27/07 A3005 RMK AO2
SLP150 60000 T02670072 10300 20267 55002 $





000
SAUS46 KLOX 281154
MTRLAX
METAR KLAX 281153Z 32003KT 10SM FEW007 BKN011 BKN070 BKN150 20/18
A3004 RMK AO2 SLP169 CIG 007V012 CB DSNT SW TCU DSNT N AND NE 70014
T02000178 10206 20200 51005 $





000
SAUS46 KLOX 281153
MTRSMX
METAR KSMX 281151Z AUTO 00000KT 7SM CLR 18/15 A3002 RMK AO2 SLP165
T01830150 10183 20172 53005 TSNO $





000
SAUS46 KLOX 281149
MTRSDB
METAR KSDB 281148Z AUTO 22006KT 10SM FEW120 22/04 A3023 RMK AO2
SLP173 60001 70001 T02220039 10267 20211 55000





000
SAUS46 KLOX 281148
MTRCQT
METAR KCQT 281147Z AUTO 00000KT 10SM CLR 21/17 A3003 RMK AO2 SLP165
T02060172 10211 20200 50004 $





000
SAUS46 KLOX 281136
MTRMWS
METAR KMWS 281130Z 23500G00KT MM/02 RMK SNOW DEPTH  M





000
SAUS46 KLOX 281115
MTRMWS
METAR KMWS 281100Z 25502G03KT 20/03 RMK SNOW DEPTH  M





000
SAUS46 KLOX 281058
MTR9L2
METAR K9L2 281055Z AUTO 33004KT 10SM CLR 27/12 A3005 RMK AO2 SLP147
T02720117 $





000
SAUS46 KLOX 281057
MTRMWS
METAR KMWS 281045Z 24004G05KT 20/00 RMK SNOW DEPTH  M





000
SAUS46 KLOX 281054
MTRLAX
METAR KLAX 281053Z 25004KT 10SM FEW006 BKN011 BKN070 BKN300 20/18
A3004 RMK AO2 SLP168 CIG 006V013 CB DSNT S-SW TCU DSNT NE T02000183
$





000
SAUS46 KLOX 281053
MTRSMX
METAR KSMX 281051Z AUTO 00000KT 7SM CLR 18/15 A3001 RMK AO2 SLP161
T01780150 TSNO $





000
SAUS46 KLOX 281049
MTRSDB
METAR KSDB 281048Z AUTO 23004KT 10SM BKN090 BKN110 23/04 A3022 RMK
AO2 SLP170 T02280044





000
SAUS46 KLOX 281049
MTRCQT
METAR KCQT 281047Z AUTO 00000KT 9SM CLR 20/17 A3003 RMK AO2 SLP166
T02000172 $





000
SAUS46 KLOX 281036
MTRMWS
METAR KMWS 281030Z 23500G00KT MM/01 RMK SNOW DEPTH  M





000
SAUS46 KLOX 281015
MTRMWS
METAR KMWS 281000Z 21505G06KT 21/02 RMK SNOW DEPTH  M





000
SAUS46 KLOX 281012
MTRLAX
SPECI KLAX 281011Z 25004KT 10SM SCT006 BKN011 BKN070 BKN300 20/18
A3003 RMK AO2 FRQ LTGCGCA DSNT SW CIG 006V013 CB DSNT SW TCU DSNT NE
$





000
SAUS46 KLOX 280958
MTRLAX
METAR KLAX 280953Z COR 28004KT 10SM BKN007 BKN060 BKN300 20/18 A3003
RMK AO2 SLP168 OCNL LTGCG DSNT SW CIG 006V008 CB DSNT SW TCU DSNT NE
T02000183 $





000
SAUS46 KLOX 280958
MTR9L2
METAR K9L2 280955Z AUTO 27005KT 10SM FEW060 SCT070 BKN090 27/13
A3005 RMK AO2 RAB21E30 SLP151 P0000 T02670128 $





000
SAUS46 KLOX 280954
MTRMWS
METAR KMWS 280945Z 21005G06KT 21/03 RMK SNOW DEPTH  M





000
SAUS46 KLOX 280954
MTRLAX
METAR KLAX 280953Z 28004KT 10SM BKN007 BKN100 BKN300 20/18 A3003 RMK
AO2 SLP168 OCNL LTG DSNT W CIG 006V008 CB DSNT SW TCU DSNT NE
T02000183 $





000
SAUS46 KLOX 280952
MTRSMX
METAR KSMX 280951Z AUTO 00000KT 7SM CLR 18/15 A3000 RMK AO2 SLP160
T01780150 TSNO $





000
SAUS46 KLOX 280949
MTRSDB
METAR KSDB 280948Z AUTO 22005KT 10SM SCT065 BKN080 BKN110 23/07
A3022 RMK AO2 RAE21 SLP167 P0001 T02280067





000
SAUS46 KLOX 280948
MTRCQT
METAR KCQT 280947Z AUTO 27003KT 8SM CLR 21/18 A3002 RMK AO2 SLP163
T02060178 $





000
SAUS46 KLOX 280938
MTRLAX
SPECI KLAX 280937Z 27004KT 10SM BKN007 BKN100 BKN300 20/18 A3003 RMK
AO2 CIG 006V008 CB DSNT SW TCU DSNT NE $





000
SAUS46 KLOX 280936
MTRMWS
METAR KMWS 280930Z 23500G00KT MM/06 RMK SNOW DEPTH  M





000
SAUS46 KLOX 280915
MTRMWS
METAR KMWS 280900Z 20503G04KT 20/06 RMK SNOW DEPTH  M





000
SAUS46 KLOX 280911
MTRSMX
SPECI KSMX 280910Z AUTO 28003KT 6SM HZ FEW006 18/15 A3000 RMK AO2
TSNO $





000
SAUS46 KLOX 280904
MTRSMX
SPECI KSMX 280903Z AUTO 31003KT 6SM HZ BKN006 18/15 A3000 RMK AO2
TSNO $





000
SAUS46 KLOX 280858
MTR9L2
METAR K9L2 280855Z AUTO 00000KT 10SM BKN095 28/12 A3005 RMK AO2
SLP150 T02780122 50012 TSNO $





000
SAUS46 KLOX 280855
MTRLAX
METAR KLAX 280853Z 25005KT 10SM FEW008 BKN100 BKN150 BKN300 21/18
A3002 RMK AO2 SLP164 CB DSNT SW TCU DSNT NE T02060183 50012 $





000
SAUS46 KLOX 280854
MTRMWS
METAR KMWS 280845Z 19503G03KT 20/06 RMK SNOW DEPTH  M





000
SAUS46 KLOX 280852
MTRSMX
METAR KSMX 280851Z AUTO 00000KT 6SM HZ SCT006 18/15 A3001 RMK AO2
SLP161 T01780150 55003 TSNO $





000
SAUS46 KLOX 280850
MTRSDB
METAR KSDB 280848Z AUTO 28006KT 9SM -RA FEW075 OVC100 23/07 A3023
RMK AO2 RAB44 SLP174 P0000 60000 T02330067 53007





000
SAUS46 KLOX 280848
MTRCQT
METAR KCQT 280847Z AUTO 00000KT 10SM FEW010 21/17 A3001 RMK AO2
SLP161 T02060172 50015 $





000
SAUS46 KLOX 280836
MTRMWS
METAR KMWS 280830Z 23500G00KT MM/07 RMK SNOW DEPTH  M





000
SAUS46 KLOX 280815
MTRMWS
METAR KMWS 280800Z 02502G02KT 20/06 RMK SNOW DEPTH  M





000
SAUS46 KLOX 280758
MTR9L2
METAR K9L2 280755Z AUTO 14009KT 10SM CLR 28/12 A3006 RMK AO2 SLP151
T02830117 403940239 $





000
SAUS46 KLOX 280754
MTRMWS
METAR KMWS 280745Z 35002G03KT 20/06 RMK SNOW DEPTH  M





000
SAUS46 KLOX 280754
MTRLAX
METAR KLAX 280753Z 25006KT 10SM SCT008 BKN100 BKN150 BKN300 21/18
A3003 RMK AO2 SLP166 TCU DSNT NE T02060178 402440189 $





000
SAUS46 KLOX 280752
MTRSMX
METAR KSMX 280751Z AUTO 00000KT 6SM HZ BKN006 18/15 A3000 RMK AO2
SLP160 T01780150 402610156 TSNO $





000
SAUS46 KLOX 280749
MTRSDB
METAR KSDB 280748Z AUTO 00000KT 10SM SCT110 26/04 A3022 RMK AO2
SLP168 T02560044 403220239





000
SAUS46 KLOX 280748
MTRCQT
METAR KCQT 280747Z AUTO 00000KT 10SM CLR 21/17 A3002 RMK AO2 SLP162
T02060167 402890194 $





000
SAUS46 KLOX 280736
MTRMWS
METAR KMWS 280730Z 23500G00KT MM/07 RMK SNOW DEPTH  M





000
SAUS46 KLOX 280729
MTRSMX
SPECI KSMX 280728Z AUTO 28003KT 5SM HZ OVC006 18/15 A3001 RMK AO2
TSNO $





000
SAUS46 KLOX 280715
MTRMWS
METAR KMWS 280700Z 30503G05KT 21/07 RMK SNOW DEPTH  M





000
SAUS46 KLOX 280658
MTR9L2
METAR K9L2 280655Z AUTO 15010KT 10SM FEW090 29/07 A3005 RMK AO2
SLP147 T02940072 $





000
SAUS46 KLOX 280654
MTRMWS
METAR KMWS 280645Z 32502G04KT 21/07 RMK SNOW DEPTH  M





000
SAUS46 KLOX 280654
MTRLAX
METAR KLAX 280653Z 18005KT 10SM FEW008 SCT100 BKN150 BKN300 20/18
A3001 RMK AO2 SLP159 TCU DSNT NE T02000178 $





000
SAUS46 KLOX 280653
MTRSMX
METAR KSMX 280651Z AUTO 00000KT 5SM HZ OVC004 18/15 A3001 RMK AO2
SLP163 T01780150 TSNO $





000
SAUS46 KLOX 280649
MTRSDB
METAR KSDB 280648Z AUTO 34009KT 10SM SCT110 26/05 A3021 RMK AO2
SLP162 T02560050





000
SAUS46 KLOX 280648
MTRCQT
METAR KCQT 280647Z AUTO 00000KT 10SM CLR 21/17 A3000 RMK AO2 SLP157
T02060167 $





000
SAUS46 KLOX 280643
MTRLAX
SPECI KLAX 280641Z 20003KT 10SM FEW008 SCT100 BKN150 BKN300 20/18
A3000 RMK AO2 TCU DSNT NE $





000
SAUS46 KLOX 280636
MTRMWS
METAR KMWS 280630Z 30501G05KT 21/07 RMK SNOW DEPTH  M





000
SAUS46 KLOX 280615
MTRMWS
METAR KMWS 280600Z 25004G07KT 22/07 RMK SNOW DEPTH  M





000
SAUS46 KLOX 280558
MTR9L2
METAR K9L2 280555Z AUTO 17011KT 10SM CLR 29/04 A3002 RMK AO2 SLP138
T02890039 10367 20289 53020 $





000
SAUS46 KLOX 280554
MTRLAX
METAR KLAX 280553Z 25009KT 10SM FEW010 BKN150 20/17 A2999 RMK AO2
SLP152 T02000172 10228 20200 53019 $





000
SAUS46 KLOX 280554
MTRMWS
METAR KMWS 280545Z 23003G06KT 22/07 RMK SNOW DEPTH  M





000
SAUS46 KLOX 280553
MTRSMX
METAR KSMX 280551Z AUTO 30003KT 5SM BR OVC004 17/15 A3001 RMK AO2
SLP163 T01720150 10233 20172 51005 TSNO $





000
SAUS46 KLOX 280549
MTRSDB
METAR KSDB 280548Z AUTO 32016G22KT 10SM CLR 27/03 A3020 RMK AO2
SLP160 T02670033 10300 20239 50008





000
SAUS46 KLOX 280548
MTRCQT
METAR KCQT 280547Z AUTO 22003KT 10SM CLR 21/17 A2997 RMK AO2 SLP147
T02110172 10278 20211 53018 $





000
SAUS46 KLOX 280515
MTRMWS
METAR KMWS 280500Z 21002G04KT 22/08 RMK SNOW DEPTH  M





000
SAUS46 KLOX 280458
MTR9L2
METAR K9L2 280455Z AUTO 21016KT 10SM CLR 29/04 A2999 RMK AO2 SLP129
T02890039 $





000
SAUS46 KLOX 280454
MTRMWS
METAR KMWS 280445Z 27002G04KT 22/08 RMK SNOW DEPTH  M





000
SAUS46 KLOX 280454
MTRLAX
METAR KLAX 280453Z 24009KT 10SM BKN150 20/18 A2995 RMK AO2 SLP141
T02000178 $





000
SAUS46 KLOX 280452
MTRSMX
METAR KSMX 280451Z AUTO 30005KT 4SM BR BKN004 17/15 A3001 RMK AO2
SLP163 T01720150 TSNO $





000
SAUS46 KLOX 280451
MTRSMX
SPECI KSMX 280449Z AUTO 30006KT 4SM BR BKN004 17/15 A3001 RMK AO2
TSNO $





000
SAUS46 KLOX 280449
MTRSDB
METAR KSDB 280448Z AUTO VRB03KT 10SM CLR 25/05 A3020 RMK AO2 SLP162
T02500050





000
SAUS46 KLOX 280448
MTRCQT
METAR KCQT 280447Z AUTO 20003KT 10SM CLR 22/18 A2994 RMK AO2 SLP137
T02170178 $





000
SAUS46 KLOX 280442
MTRSMX
SPECI KSMX 280441Z AUTO 30004KT 4SM BR SCT004 17/15 A3001 RMK AO2
TSNO $





000
SAUS46 KLOX 280436
MTRMWS
METAR KMWS 280430Z 23500G00KT MM/08 RMK SNOW DEPTH  M





000
SAUS46 KLOX 280415
MTRMWS
METAR KMWS 280400Z 30501G01KT 20/07 RMK SNOW DEPTH  M





000
SAUS46 KLOX 280358
MTR9L2
METAR K9L2 280355Z AUTO 22016G21KT 10SM CLR 30/05 A2997 RMK AO2
SLP126 T03000050 $





000
SAUS46 KLOX 280354
MTRMWS
METAR KMWS 280345Z 25502G02KT 20/08 RMK SNOW DEPTH  M





000
SAUS46 KLOX 280354
MTRLAX
METAR KLAX 280353Z 26014KT 10SM SCT150 BKN250 21/18 A2994 RMK AO2
SLP135 T02060178 $





000
SAUS46 KLOX 280353
MTRSMX
METAR KSMX 280351Z AUTO 32003KT 7SM CLR 18/15 A3000 RMK AO2 SLP159
T01780150 TSNO $





000
SAUS46 KLOX 280349
MTRSDB
METAR KSDB 280348Z AUTO 23004KT 10SM CLR 24/05 A3019 RMK AO2 SLP160
T02390050





000
SAUS46 KLOX 280348
MTRCQT
METAR KCQT 280347Z AUTO 00000KT 10SM CLR 23/17 A2992 RMK AO2 SLP130
T02280172 $





000
SAUS46 KLOX 280336
MTRMWS
METAR KMWS 280330Z 23500G00KT MM/07 RMK SNOW DEPTH  M





000
SAUS46 KLOX 280315
MTRMWS
METAR KMWS 280300Z 03503G04KT 20/07 RMK SNOW DEPTH  M





000
SAUS46 KLOX 280258
MTR9L2
METAR K9L2 280255Z AUTO 22018G26KT 10SM CLR 32/06 A2995 RMK AO2 PK
WND 22026/0252 SLP120 T03170056 53007 $





000
SAUS46 KLOX 280254
MTRMWS
METAR KMWS 280245Z 04505G08KT 22/09 RMK SNOW DEPTH  M





000
SAUS46 KLOX 280254
MTRLAX
METAR KLAX 280253Z 27013KT 10SM SCT150 BKN250 21/18 A2993 RMK AO2
SLP133 T02110178 56007 $





000
SAUS46 KLOX 280253
MTRSMX
METAR KSMX 280251Z AUTO 30004KT 7SM CLR 19/15 A2999 RMK AO2 SLP156
T01890150 58006 TSNO $





000
SAUS46 KLOX 280249
MTRSDB
METAR KSDB 280248Z AUTO 22010KT 10SM CLR 25/05 A3017 RMK AO2 SLP155
T02500050 53002





000
SAUS46 KLOX 280248
MTRCQT
METAR KCQT 280247Z AUTO 28004KT 10SM CLR 24/14 A2992 RMK AO2 SLP129
T02440144 56002 $





000
SAUS46 KLOX 280236
MTRMWS
METAR KMWS 280230Z 23500G00KT MM/08 RMK SNOW DEPTH  M





000
SAUS46 KLOX 280215
MTRMWS
METAR KMWS 280200Z 23002G03KT 25/07 RMK SNOW DEPTH  M





000
SAUS46 KLOX 280158
MTR9L2
METAR K9L2 280155Z AUTO 23016G23KT 10SM CLR 34/06 A2993 RMK AO2
SLP112 T03440056 $





000
SAUS46 KLOX 280155
MTRLAX
METAR KLAX 280153Z 27010KT 10SM FEW060 SCT150 BKN250 22/17 A2994 RMK
AO2 SLP136 T02220172 $





000
SAUS46 KLOX 280154
MTRMWS
METAR KMWS 280145Z 21502G04KT 25/07 RMK SNOW DEPTH  M





000
SAUS46 KLOX 280152
MTRSMX
METAR KSMX 280151Z 32008KT 8SM FEW200 21/15 A2999 RMK AO2 SLP158
T02110150 $





000
SAUS46 KLOX 280149
MTRSDB
METAR KSDB 280148Z AUTO 21007KT 10SM CLR 27/02 A3017 RMK AO2 SLP150
T02720022





000
SAUS46 KLOX 280149
MTRCQT
METAR KCQT 280147Z AUTO VRB03KT 10SM CLR 26/12 A2992 RMK AO2 SLP130
T02560122 $





000
SAUS46 KLOX 280136
MTRMWS
METAR KMWS 280130Z 23500G00KT MM/09 RMK SNOW DEPTH  M





000
SAUS46 KLOX 280115
MTRMWS
METAR KMWS 280100Z 22002G04KT 27/09 RMK SNOW DEPTH  M





000
SAUS46 KLOX 280058
MTR9L2
METAR K9L2 280055Z AUTO 24020G26KT 10SM CLR 36/06 A2993 RMK AO2 PK
WND 24028/0025 SLP109 T03560061 $





000
SAUS46 KLOX 280055
MTRLAX
METAR KLAX 280053Z COR 27009KT 10SM FEW080 BKN150 23/17 A2994 RMK
AO2 SLP137 T02280172 $





000
SAUS46 KLOX 280054
MTRMWS
METAR KMWS 280045Z 22003G05KT 27/09 RMK SNOW DEPTH  M





000
SAUS46 KLOX 280053
MTRSMX
METAR KSMX 280051Z 30007KT 9SM SCT200 22/16 A3000 RMK AO2 SLP160
T02220156 $





000
SAUS46 KLOX 280049
MTRSDB
METAR KSDB 280048Z AUTO 21010KT 10SM CLR 29/02 A3017 RMK AO2 SLP150
T02890022





000
SAUS46 KLOX 280048
MTRCQT
METAR KCQT 280047Z AUTO 28006KT 10SM CLR 27/16 A2992 RMK AO2 SLP130
T02670156 $





000
SAUS46 KLOX 280036
MTRMWS
METAR KMWS 280030Z 23500G00KT MM/10 RMK SNOW DEPTH  M





000
SAUS46 KLOX 280015
MTRMWS
METAR KMWS 280000Z 22504G06KT 27/10 RMK SNOW DEPTH  M





000
SAUS46 KLOX 272358
MTR9L2
METAR K9L2 272355Z AUTO 24020G26KT 10SM CLR 37/06 A2993 RMK AO2 PK
WND 23026/2347 SLP110 T03670056 10394 20344 56012 $





000
SAUS46 KLOX 272355
MTRLAX
METAR KLAX 272353Z 27010KT 10SM FEW080 BKN150 23/18 A2995 RMK AO2
SLP140 60014 T02280178 10244 20211 56022 $





000
SAUS46 KLOX 272354
MTRMWS
METAR KMWS 272345Z 23503G06KT 27/10 RMK SNOW DEPTH  M





000
SAUS46 KLOX 272352
MTRSMX
METAR KSMX 272351Z 32011KT 10SM CLR 23/16 A3001 RMK AO2 SLP161
T02330156 10261 20228 53002 $





000
SAUS46 KLOX 272349
MTRCQT
METAR KCQT 272347Z AUTO VRB03KT 10SM CLR 28/17 A2993 RMK AO2 SLP131
60000 T02780172 10289 20250 56023 $





000
SAUS46 KLOX 272349
MTRSDB
METAR KSDB 272348Z AUTO 19010KT 10SM CLR 29/05 A3017 RMK AO2 PK WND
18026/2255 SLP149 T02940050 10322 20272 56012





000
SAUS46 KLOX 272336
MTRMWS
METAR KMWS 272330Z 23500G00KT MM/10 RMK SNOW DEPTH  M





000
SAUS46 KLOX 272315
MTRMWS
METAR KMWS 272300Z 24003G05KT 28/09 RMK SNOW DEPTH  M





000
SAUS46 KLOX 272258
MTR9L2
METAR K9L2 272255Z AUTO 23020G24KT 10SM CLR 38/06 A2994 RMK AO2
SLP111 T03830056 $





000
SAUS46 KLOX 272254
MTRMWS
METAR KMWS 272245Z 23005G09KT 28/10 RMK SNOW DEPTH  M





000
SAUS46 KLOX 272254
MTRLAX
METAR KLAX 272253Z 27010KT 10SM FEW039 SCT110 BKN200 23/18 A2996 RMK
AO2 SLP142 T02330178 $





000
SAUS46 KLOX 272252
MTRSMX
METAR KSMX 272251Z 31008KT 10SM SCT200 25/16 A3000 RMK AO2 SLP158
T02500156 $





000
SAUS46 KLOX 272249
MTRCQT
METAR KCQT 272247Z AUTO 28004KT 10SM CLR 28/17 A2994 RMK AO2 SLP135
T02830167 $





000
SAUS46 KLOX 272249
MTRSDB
METAR KSDB 272248Z AUTO 17017G25KT 10SM CLR 29/06 A3018 RMK AO2
SLP153 T02890061





000
SAUS46 KLOX 272236
MTRMWS
METAR KMWS 272230Z 23500G00KT MM/08 RMK SNOW DEPTH  M





000
SAUS46 KLOX 272215
MTRMWS
METAR KMWS 272200Z 22004G06KT 27/10 RMK SNOW DEPTH  M





000
SAUS46 KLOX 272200
MTR9L2
METAR K9L2 272155Z AUTO 24008G21KT 10SM CLR 39/06 A2996 RMK AO2
SLP117 T03890061 $





000
SAUS46 KLOX 272154
MTRMWS
METAR KMWS 272145Z 21504G06KT 26/10 RMK SNOW DEPTH  M





000
SAUS46 KLOX 272154
MTRLAX
METAR KLAX 272153Z 27008KT 10SM FEW065 SCT110 BKN200 22/18 A2999 RMK
AO2 RAB03E37 SLP152 P0014 T02170183 $





000
SAUS46 KLOX 272153
MTRSMX
METAR KSMX 272151Z 29008KT 10SM SCT200 26/16 A3000 RMK AO2 SLP158
T02560156 $





000
SAUS46 KLOX 272149
MTRSDB
METAR KSDB 272148Z AUTO 18017G24KT 10SM CLR 32/04 A3019 RMK AO2
SLP154 T03170039





000
SAUS46 KLOX 272148
MTRCQT
METAR KCQT 272147Z AUTO 28006KT 10SM CLR 25/17 A2998 RMK AO2 SLP148
T02500172 $





000
SAUS46 KLOX 272136
MTRMWS
METAR KMWS 272130Z 23500G00KT MM/12 RMK SNOW DEPTH  M





000
SAUS46 KLOX 272115
MTRMWS
METAR KMWS 272100Z 24505G06KT 27/12 RMK SNOW DEPTH  M





000
SAUS46 KLOX 272058
MTR9L2
METAR K9L2 272055Z AUTO 20010G16KT 10SM CLR 39/06 A2997 RMK AO2
SLP121 T03890056 57012 $





000
SAUS46 KLOX 272054
MTRMWS
METAR KMWS 272045Z 24503G05KT 29/12 RMK SNOW DEPTH  M





000
SAUS46 KLOX 272054
MTRLAX
METAR KLAX 272053Z 28008KT 10SM BKN110 BKN250 22/17 A3002 RMK AO2
SLP162 VIS S 3 T02220172 58004 $





000
SAUS46 KLOX 272053
MTRSMX
METAR KSMX 272051Z 31011KT 10SM CLR 25/16 A3000 RMK AO2 SLP158
T02500156 56005 $





000
SAUS46 KLOX 272049
MTRSDB
METAR KSDB 272048Z AUTO 18015G20KT 10SM CLR 28/01 A3021 RMK AO2
SLP166 T02780011 55000





000
SAUS46 KLOX 272048
MTRCQT
METAR KCQT 272047Z AUTO 29006KT 10SM SCT120 27/18 A3000 RMK AO2
SLP155 60000 T02720178 58004 $





000
SAUS46 KLOX 272036
MTRMWS
METAR KMWS 272030Z 23500G00KT MM/10 RMK SNOW DEPTH  M





000
SAUS46 KLOX 272015
MTRMWS
METAR KMWS 272000Z 12503G07KT 24/11 RMK SNOW DEPTH  M





000
SAUS46 KLOX 271958
MTR9L2
METAR K9L2 271955Z AUTO 16007KT 10SM CLR 38/03 A2999 RMK AO2 SLP126
T03830028 $





000
SAUS46 KLOX 271954
MTRMWS
METAR KMWS 271945Z 11505G08KT 23/11 RMK SNOW DEPTH  M





000
SAUS46 KLOX 271954
MTRLAX
METAR KLAX 271953Z 27010KT 10SM FEW055 BKN120 BKN200 23/17 A3002 RMK
AO2 SLP163 T02280172 $





000
SAUS46 KLOX 271952
MTRSMX
METAR KSMX 271951Z 30011KT 10SM FEW250 25/16 A3000 RMK AO2 SLP160
T02500156 $





000
SAUS46 KLOX 271949
MTRSDB
METAR KSDB 271948Z AUTO 20013G18KT 10SM CLR 28/04 A3021 RMK AO2
SLP165 T02780039





000
SAUS46 KLOX 271948
MTRCQT
METAR KCQT 271947Z AUTO 28005KT 10SM FEW120 27/18 A2999 RMK AO2
SLP153 T02720178 $





000
SAUS46 KLOX 271936
MTRMWS
METAR KMWS 271930Z 23500G00KT MM/09 RMK SNOW DEPTH  M





000
SAUS46 KLOX 271915
MTRMWS
METAR KMWS 271900Z 05508G11KT 20/08 RMK SNOW DEPTH  M





000
SAUS46 KLOX 271858
MTR9L2
METAR K9L2 271855Z AUTO VRB04KT 10SM CLR 37/03 A3000 RMK AO2 SLP132
T03670033 $





000
SAUS46 KLOX 271854
MTRLAX
METAR KLAX 271853Z 24005KT 9SM BKN150 BKN250 23/17 A3003 RMK AO2
SLP168 VIRGA T02280172 $





000
SAUS46 KLOX 271854
MTRMWS
METAR KMWS 271845Z 04006G09KT 20/08 RMK SNOW DEPTH  M





000
SAUS46 KLOX 271853
MTRSMX
METAR KSMX 271851Z 31006KT 10SM FEW250 25/16 A3000 RMK AO2 SLP159
T02500156 $





000
SAUS46 KLOX 271849
MTRSDB
METAR KSDB 271848Z AUTO 21009KT 10SM CLR 31/04 A3021 RMK AO2 SLP161
T03110044





000
SAUS46 KLOX 271848
MTRCQT
METAR KCQT 271847Z AUTO 00000KT 10SM CLR 26/18 A3002 RMK AO2
RAB16E30 SLP164 P0000 T02610178 $





000
SAUS46 KLOX 271836
MTRMWS
METAR KMWS 271830Z 23500G00KT MM/09 RMK SNOW DEPTH  M





000
SAUS46 KLOX 271815
MTRMWS
METAR KMWS 271800Z 33501G02KT 28/08 RMK SNOW DEPTH  M





000
SAUS46 KLOX 271758
MTR9L2
METAR K9L2 271755Z AUTO 18004KT 10SM CLR 34/04 A3001 RMK AO2 SLP136
T03440039 10350 20239 50001 $





000
SAUS46 KLOX 271754
MTRMWS
METAR KMWS 271745Z 25002G04KT 30/06 RMK SNOW DEPTH  M





000
SAUS46 KLOX 271754
MTRLAX
METAR KLAX 271753Z 27005KT 10SM BKN150 BKN200 22/17 A3003 RMK AO2
SLP166 T02220172 10228 20194 51012 $





000
SAUS46 KLOX 271753
MTRSMX
METAR KSMX 271751Z VRB05KT 10SM SCT250 23/16 A3001 RMK AO2 SLP163
T02330156 10233 20156 50003 $





000
SAUS46 KLOX 271749
MTRSDB
METAR KSDB 271748Z AUTO 21008KT 10SM FEW110 28/04 A3021 RMK AO2
SLP164 60000 T02830039 10294 20244 51006





000
SAUS46 KLOX 271748
MTRCQT
METAR KCQT 271747Z AUTO 20003KT 10SM CLR 27/18 A3001 RMK AO2 SLP159
T02670178 10267 20194 51008 $





000
SAUS46 KLOX 271736
MTRMWS
METAR KMWS 271730Z 23500G00KT MM/05 RMK SNOW DEPTH  M





000
SAUS46 KLOX 271715
MTRMWS
METAR KMWS 271700Z 26501G02KT 27/04 RMK SNOW DEPTH  M





000
SAUS46 KLOX 271658
MTR9L2
METAR K9L2 271655Z AUTO 19007KT 10SM CLR 33/04 A3001 RMK AO2 SLP139
T03280044 TSNO $





000
SAUS46 KLOX 271654
MTRMWS
METAR KMWS 271645Z 25501G02KT 26/04 RMK SNOW DEPTH  M





000
SAUS46 KLOX 271654
MTRLAX
METAR KLAX 271653Z 24006KT 10SM FEW100 BKN150 BKN200 22/17 A3002 RMK
AO2 SLP163 T02220172 $





000
SAUS46 KLOX 271652
MTRSMX
METAR KSMX 271651Z 04003KT 10SM FEW004 SCT250 22/15 A3002 RMK AO2
SLP164 T02170150 $





000
SAUS46 KLOX 271649
MTRSDB
METAR KSDB 271648Z AUTO 21007KT 10SM CLR 29/04 A3020 RMK AO2 SLP163
T02890044





000
SAUS46 KLOX 271648
MTRCQT
METAR KCQT 271647Z AUTO VRB03KT 10SM CLR 24/17 A3000 RMK AO2 SLP156
T02390172 $





000
SAUS46 KLOX 271636
MTRMWS
METAR KMWS 271630Z 23500G00KT MM/06 RMK SNOW DEPTH  M





000
SAUS46 KLOX 271615
MTRMWS
METAR KMWS 271600Z 22501G02KT 26/05 RMK SNOW DEPTH  M





000
SAUS46 KLOX 271612
MTRSMX
SPECI KSMX 271611Z 00000KT 6SM HZ SCT004 18/14 A3001 RMK AO2 $





000
SAUS46 KLOX 271558
MTR9L2
METAR K9L2 271555Z AUTO 18006KT 10SM CLR 30/03 A3002 RMK AO2 SLP142
T03000028 TSNO $





000
SAUS46 KLOX 271554
MTRMWS
METAR KMWS 271545Z 01501G02KT 26/05 RMK SNOW DEPTH  M





000
SAUS46 KLOX 271554
MTRLAX
METAR KLAX 271553Z 00000KT 10SM FEW110 OVC150 22/17 A3002 RMK AO2
SLP162 T02170172 $





000
SAUS46 KLOX 271552
MTRSMX
METAR KSMX 271551Z 00000KT 4SM BR OVC002 17/15 A3002 RMK AO2 SLP165
T01670150 $





000
SAUS46 KLOX 271549
MTRSDB
METAR KSDB 271548Z AUTO 25006KT 10SM CLR 27/04 A3020 RMK AO2 SLP164
T02670039





000
SAUS46 KLOX 271548
MTRCQT
METAR KCQT 271547Z AUTO 00000KT 10SM CLR 22/17 A3000 RMK AO2 SLP156
T02220172 $





000
SAUS46 KLOX 271546
MTRSMX
SPECI KSMX 271545Z 00000KT 3SM BR OVC002 17/15 A3001 RMK AO2 $





000
SAUS46 KLOX 271536
MTRMWS
METAR KMWS 271530Z 23500G00KT MM/05 RMK SNOW DEPTH  M





000
SAUS46 KLOX 271515
MTRMWS
METAR KMWS 271500Z 35002G04KT 23/05 RMK SNOW DEPTH  M





000
SAUS46 KLOX 271500
MTR9L2
METAR K9L2 271455Z AUTO 00000KT 10SM CLR 26/04 A3001 RMK AO2 SLP138
T02610039 53012 TSNO $





000
SAUS46 KLOX 271454
MTRMWS
METAR KMWS 271445Z 01004G05KT 23/04 RMK SNOW DEPTH  M





000
SAUS46 KLOX 271454
MTRLAX
METAR KLAX 271453Z 34004KT 10SM FEW110 OVC150 20/17 A2999 RMK AO2
SLP154 T01980172 53013 $





000
SAUS46 KLOX 271452
MTRSMX
METAR KSMX 271451Z 00000KT 1/4SM FG VV002 16/14 A3000 RMK AO2 SLP160
T01560144 53009 $





000
SAUS46 KLOX 271449
MTRSDB
METAR KSDB 271448Z AUTO 34009KT 10SM BKN120 26/04 A3019 RMK AO2
SLP157 60000 T02610044 53007





000
SAUS46 KLOX 271448
MTRCQT
METAR KCQT 271447Z AUTO 00000KT 10SM CLR 21/17 A2998 RMK AO2 SLP151
T02110172 53014 $





000
SAUS46 KLOX 271436
MTRMWS
METAR KMWS 271430Z 23500G00KT MM/03 RMK SNOW DEPTH  M





000
SAUS46 KLOX 271415
MTRMWS
METAR KMWS 271400Z 03002G04KT 23/04 RMK SNOW DEPTH  M





000
SAUS46 KLOX 271358
MTR9L2
METAR K9L2 271355Z AUTO 00000KT 10SM CLR 24/04 A2999 RMK AO2 SLP133
T02390039 TSNO $





000
SAUS46 KLOX 271354
MTRMWS
METAR KMWS 271345Z  0002G06KT 22/03 RMK SNOW DEPTH  M





000
SAUS46 KLOX 271354
MTRLAX
METAR KLAX 271353Z 25003KT 8SM BCFG FEW001 SCT006 SCT110 BKN150
19/17 A2999 RMK AO2 SLP151 FG BANK S T01940172 $





000
SAUS46 KLOX 271353
MTRSMX
METAR KSMX 271351Z 00000KT 1/4SM FG VV002 16/14 A2999 RMK AO2 SLP156
T01560139 $





000
SAUS46 KLOX 271349
MTRSDB
METAR KSDB 271348Z AUTO 33019G25KT 10SM SCT100 26/04 A3017 RMK AO2
PK WND 34027/1323 RAB22E37 SLP149 P0000 T02560044





000
SAUS46 KLOX 271348
MTRCQT
METAR KCQT 271347Z AUTO 00000KT 9SM CLR 20/17 A2998 RMK AO2 SLP148
T02000172 $





000
SAUS46 KLOX 271336
MTRMWS
METAR KMWS 271330Z 23500G00KT MM/04 RMK SNOW DEPTH  M





000
SAUS46 KLOX 271329
MTRLAX
SPECI KLAX 271328Z 26007KT 7SM BCFG FEW001 SCT006 BKN120 BKN170
19/17 A2997 RMK AO2 FG BANK S $





000
SAUS46 KLOX 271315
MTRMWS
METAR KMWS 271300Z 34503G04KT 23/05 RMK SNOW DEPTH  M





000
SAUS46 KLOX 271258
MTR9L2
METAR K9L2 271255Z AUTO 18004KT 10SM CLR 25/04 A2998 RMK AO2 SLP125
T02500039 TSNO $





000
SAUS46 KLOX 271254
MTRMWS
METAR KMWS 271245Z 36004G06KT 22/03 RMK SNOW DEPTH  M





000
SAUS46 KLOX 271254
MTRLAX
METAR KLAX 271253Z 27007KT 7SM BCFG BKN007 BKN140 19/17 A2996 RMK
AO2 SLP143 CIG 006V008 T01940172 $





000
SAUS46 KLOX 271253
MTRSMX
METAR KSMX 271251Z 00000KT 1/4SM FG VV002 16/14 A2998 RMK AO2 SLP152
T01560139 $





000
SAUS46 KLOX 271249
MTRSDB
METAR KSDB 271248Z AUTO 35017KT 10SM CLR 25/01 A3017 RMK AO2 SLP146
T02500011





000
SAUS46 KLOX 271248
MTRCQT
METAR KCQT 271247Z AUTO 28003KT 10SM CLR 20/17 A2995 RMK AO2 SLP139
T02000167 $





000
SAUS46 KLOX 271236
MTRMWS
METAR KMWS 271230Z 23500G00KT MM/02 RMK SNOW DEPTH  M





000
SAUS46 KLOX 271215
MTRMWS
METAR KMWS 271200Z 35504G07KT 23/03 RMK SNOW DEPTH  M





000
SAUS46 KLOX 271158
MTR9L2
METAR K9L2 271155Z AUTO 20005KT 10SM CLR 26/04 A2997 RMK AO2 SLP122
T02610044 10283 20261 58000 TSNO $





000
SAUS46 KLOX 271154
MTRMWS
METAR KMWS 271145Z 30004G11KT 23/03 RMK SNOW DEPTH  M





000
SAUS46 KLOX 271154
MTRLAX
METAR KLAX 271153Z 28006KT 9SM BCFG OVC006 19/17 A2996 RMK AO2
SLP141 T01940172 58006 $





000
SAUS46 KLOX 271152
MTRSMX
METAR KSMX 271151Z AUTO 30003KT 1/4SM FG VV002 16/14 A2998 RMK AO2
SLP151 T01560139 10167 20156 53000 TSNO $





000
SAUS46 KLOX 271149
MTRSDB
METAR KSDB 271148Z AUTO 35013KT 10SM CLR 25/01 A3017 RMK AO2 SLP144
T02500011 10261 20239 55005





000
SAUS46 KLOX 271148
MTRCQT
METAR KCQT 271147Z AUTO VRB03KT 10SM CLR 19/17 A2994 RMK AO2 SLP137
T01940167 10211 20194 58005 $





000
SAUS46 KLOX 271136
MTRMWS
METAR KMWS 271130Z 23500G00KT MM/04 RMK SNOW DEPTH  M





000
SAUS46 KLOX 271115
MTRMWS
METAR KMWS 271100Z 33504G05KT 22/03 RMK SNOW DEPTH  M





000
SAUS46 KLOX 271105
MTRSMX
SPECI KSMX 271104Z AUTO 00000KT 1/4SM FG VV002 16/15 A2997 RMK AO2
TSNO $





000
SAUS46 KLOX 271058
MTR9L2
METAR K9L2 271055Z AUTO 20006KT 10SM CLR 27/04 A2998 RMK AO2 SLP124
T02670044 TSNO $





000
SAUS46 KLOX 271054
MTRMWS
METAR KMWS 271045Z 32506G08KT 22/04 RMK SNOW DEPTH  M





000
SAUS46 KLOX 271054
MTRLAX
METAR KLAX 271053Z 29006KT 9SM BCFG BKN006 19/17 A2997 RMK AO2
SLP145 T01940172 $





000
SAUS46 KLOX 271053
MTRSMX
METAR KSMX 271051Z AUTO 00000KT 1/4SM FG VV001 16/15 A2998 RMK AO2
SLP151 T01610150 TSNO $





000
SAUS46 KLOX 271049
MTRSDB
METAR KSDB 271048Z AUTO 33011KT 10SM CLR 25/00 A3016 RMK AO2 SLP143
T02500000





000
SAUS46 KLOX 271048
MTRCQT
METAR KCQT 271047Z AUTO 00000KT 10SM CLR 20/17 A2995 RMK AO2 SLP140
T02000167 $





000
SAUS46 KLOX 271036
MTRMWS
METAR KMWS 271030Z 23500G00KT MM/02 RMK SNOW DEPTH  M





000
SAUS46 KLOX 271015
MTRMWS
METAR KMWS 271000Z 26503G06KT 22/02 RMK SNOW DEPTH  M





000
SAUS46 KLOX 271000
MTR9L2
METAR K9L2 270955Z AUTO 19008KT 10SM CLR 27/05 A2998 RMK AO2 SLP124
T02720050 TSNO $





000
SAUS46 KLOX 270954
MTRMWS
METAR KMWS 270945Z 35504G08KT 22/02 RMK SNOW DEPTH  M





000
SAUS46 KLOX 270954
MTRLAX
METAR KLAX 270953Z 25006KT 9SM BCFG BKN006 20/17 A2998 RMK AO2
SLP148 CIG 004V008 T02000172 $





000
SAUS46 KLOX 270953
MTRSMX
METAR KSMX 270951Z AUTO 00000KT 1/4SM FG VV001 16/14 A2997 RMK AO2
SLP149 T01610144 TSNO $





000
SAUS46 KLOX 270950
MTRSDB
METAR KSDB 270948Z AUTO 34012G21KT 10SM CLR 26/00 A3017 RMK AO2
SLP146 T02560000





000
SAUS46 KLOX 270950
MTRLAX
SPECI KLAX 270948Z 24006KT 9SM BCFG BKN006 20/17 A2998 RMK AO2 CIG
004V008 $





000
SAUS46 KLOX 270948
MTRCQT
METAR KCQT 270947Z AUTO 00000KT 10SM CLR 21/17 A2996 RMK AO2 SLP143
T02060172 $





000
SAUS46 KLOX 270936
MTRMWS
METAR KMWS 270930Z 23500G00KT MM/03 RMK SNOW DEPTH  M





000
SAUS46 KLOX 270915
MTRMWS
METAR KMWS 270900Z 31503G06KT 23/01 RMK SNOW DEPTH  M





000
SAUS46 KLOX 270858
MTR9L2
METAR K9L2 270855Z AUTO 22009KT 10SM CLR 28/04 A2997 RMK AO2 SLP120
T02780044 57002 TSNO $





000
SAUS46 KLOX 270855
MTRLAX
METAR KLAX 270853Z 26006KT 10SM FEW004 SCT008 BKN140 BKN180 20/17
A2997 RMK AO2 SLP147 T02000172 58005 $





000
SAUS46 KLOX 270854
MTRMWS
METAR KMWS 270845Z 31005G08KT 23/00 RMK SNOW DEPTH  M





000
SAUS46 KLOX 270852
MTRSMX
METAR KSMX 270851Z AUTO 00000KT 1/4SM FG VV001 17/15 A2998 RMK AO2
SLP150 T01670150 56001 TSNO $





000
SAUS46 KLOX 270849
MTRSDB
METAR KSDB 270848Z AUTO 33006KT 10SM CLR 24/05 A3018 RMK AO2 SLP151
T02440050 55003





000
SAUS46 KLOX 270848
MTRCQT
METAR KCQT 270847Z AUTO 00000KT 10SM CLR 21/17 A2996 RMK AO2 SLP142
T02060167 58006 $





000
SAUS46 KLOX 270836
MTRMWS
METAR KMWS 270830Z 23500G00KT MM/02 RMK SNOW DEPTH  M





000
SAUS46 KLOX 270816
MTRSMX
SPECI KSMX 270815Z AUTO 00000KT 1/4SM FG VV001 16/14 A2998 RMK AO2
TSNO $





000
SAUS46 KLOX 270815
MTRMWS
METAR KMWS 270800Z 26003G06KT 22/04 RMK SNOW DEPTH  M





000
SAUS46 KLOX 270804 COR
MTRSMX
SPECI KSMX 270801Z AUTO 31003KT 1/4SM FG VV002 16/14 A2998 RMK AO2
TSNO $





000
SAUS46 KLOX 270759
MTR9L2
METAR K9L2 270755Z AUTO 22011KT 10SM CLR 28/04 A2997 RMK AO2 SLP123
T02780044 403940233 TSNO $





000
SAUS46 KLOX 270755
MTRLAX
METAR KLAX 270753Z 31006KT 10SM FEW004 SCT008 BKN140 BKN180 20/17
A2998 RMK AO2 SLP150 T02000172 402440183 $





000
SAUS46 KLOX 270754
MTRMWS
METAR KMWS 270745Z 28502G04KT 22/05 RMK SNOW DEPTH  M





000
SAUS46 KLOX 270753
MTRSMX
METAR KSMX 270751Z AUTO 32003KT 3/4SM BR VV002 16/14 A2998 RMK AO2
SLP151 T01610144 402500156 TSNO $





000
SAUS46 KLOX 270749
MTRSDB
METAR KSDB 270748Z AUTO 28007KT 10SM CLR 24/05 A3018 RMK AO2 SLP152
T02390050 403440217





000
SAUS46 KLOX 270748
MTRSMX
SPECI KSMX 270747Z AUTO 00000KT 2SM BR OVC003 16/14 A2998 RMK AO2
402500156 TSNO $





000
SAUS46 KLOX 270748
MTRCQT
METAR KCQT 270747Z AUTO 00000KT 10SM CLR 21/17 A2997 RMK AO2 SLP145
T02060172 403000200 $





000
SAUS46 KLOX 270747
MTRLAX
SPECI KLAX 270746Z VRB05KT 10SM FEW004 SCT008 BKN140 BKN180 19/17
A2998 RMK AO2 $





000
SAUS46 KLOX 270739
MTRSMX
SPECI KSMX 270738Z AUTO 00000KT 1 1/4SM BR BKN003 16/14 A2998 RMK
AO2 TSNO $





000
SAUS46 KLOX 270736
MTRMWS
METAR KMWS 270730Z 23500G00KT MM/06 RMK SNOW DEPTH  M





000
SAUS46 KLOX 270735
MTRSMX
SPECI KSMX 270734Z AUTO 00000KT 2 1/2SM BR BKN003 16/14 A2998 RMK
AO2 TSNO $





000
SAUS46 KLOX 270730
MTRSMX
SPECI KSMX 270729Z AUTO 00000KT 3SM BR SCT003 16/14 A2998 RMK AO2
TSNO $





000
SAUS46 KLOX 270715
MTRMWS
METAR KMWS 270700Z 33004G07KT 22/05 RMK SNOW DEPTH  M





000
SAUS46 KLOX 270659
MTR9L2
METAR K9L2 270655Z AUTO 22011KT 10SM CLR 28/05 A2997 RMK AO2 SLP123
T02780050 TSNO $





000
SAUS46 KLOX 270654
MTRMWS
METAR KMWS 270645Z 29504G07KT 22/06 RMK SNOW DEPTH  M





000
SAUS46 KLOX 270654
MTRLAX
METAR KLAX 270653Z 27005KT 10SM FEW004 BKN008 19/17 A2999 RMK AO2
SLP151 T01940172 $





000
SAUS46 KLOX 270652
MTRSMX
METAR KSMX 270651Z AUTO 00000KT 3SM BR CLR 17/14 A2997 RMK AO2
SLP150 T01670144 TSNO $





000
SAUS46 KLOX 270649
MTRSDB
METAR KSDB 270648Z AUTO 30010KT 10SM CLR 25/03 A3019 RMK AO2 SLP153
T02500033





000
SAUS46 KLOX 270648
MTRCQT
METAR KCQT 270647Z AUTO 00000KT 10SM CLR 21/17 A2997 RMK AO2 SLP148
T02060172 $





000
SAUS46 KLOX 270636
MTRMWS
METAR KMWS 270630Z 23500G00KT MM/06 RMK SNOW DEPTH  M





000
SAUS46 KLOX 270615
MTRMWS
METAR KMWS 270600Z 25502G04KT 22/05 RMK SNOW DEPTH  M





000
SAUS46 KLOX 270558
MTR9L2
METAR K9L2 270555Z AUTO 21012KT 10SM CLR 28/06 A2998 RMK AO2 SLP125
T02830056 10383 20283 50017 TSNO $





000
SAUS46 KLOX 270554
MTRMWS
METAR KMWS 270545Z 24504G06KT 22/05 RMK SNOW DEPTH  M





000
SAUS46 KLOX 270554
MTRLAX
METAR KLAX 270553Z 26005KT 10SM BKN008 19/17 A2999 RMK AO2 SLP152
T01940172 10228 20194 51013 $





000
SAUS46 KLOX 270553
MTRSMX
METAR KSMX 270551Z AUTO 00000KT 4SM BR CLR 17/14 A2998 RMK AO2
SLP151 T01670144 10244 20167 50007 TSNO $





000
SAUS46 KLOX 270551
MTRLAX
SPECI KLAX 270550Z 26005KT 10SM BKN008 19/17 A2999 RMK AO2 $





000
SAUS46 KLOX 270549
MTRSDB
METAR KSDB 270548Z AUTO 27007KT 10SM CLR 25/01 A3019 RMK AO2 SLP158
T02500006 10322 20239 51010





000
SAUS46 KLOX 270548
MTRCQT
METAR KCQT 270547Z AUTO 00000KT 10SM CLR 21/17 A2998 RMK AO2 SLP149
T02110172 10261 20206 51015 $





000
SAUS46 KLOX 270536
MTRMWS
METAR KMWS 270530Z 23500G00KT MM/07 RMK SNOW DEPTH  M





000
SAUS46 KLOX 270515
MTRMWS
METAR KMWS 270500Z 26505G09KT 22/06 RMK SNOW DEPTH  M





000
SAUS46 KLOX 270458
MTR9L2
METAR K9L2 270455Z AUTO 22014KT 10SM CLR 29/07 A2998 RMK AO2 SLP126
T02890067 TSNO $





000
SAUS46 KLOX 270454
MTRMWS
METAR KMWS 270445Z 26505G06KT 22/05 RMK SNOW DEPTH  M





000
SAUS46 KLOX 270454
MTRLAX
METAR KLAX 270453Z 25006KT 10SM SCT009 BKN150 20/17 A2998 RMK AO2
SLP149 T02000172 $





000
SAUS46 KLOX 270453
MTRSMX
METAR KSMX 270451Z AUTO 31003KT 6SM HZ CLR 17/14 A2998 RMK AO2
SLP152 T01720144 TSNO $





000
SAUS46 KLOX 270449
MTRSDB
METAR KSDB 270448Z AUTO 21008KT 10SM CLR 24/01 A3019 RMK AO2 SLP160
T02440011





000
SAUS46 KLOX 270448
MTRCQT
METAR KCQT 270447Z AUTO VRB03KT 10SM CLR 21/17 A2997 RMK AO2 SLP147
T02110172 $





000
SAUS46 KLOX 270436
MTRMWS
METAR KMWS 270430Z 23500G00KT MM/07 RMK SNOW DEPTH  M





000
SAUS46 KLOX 270415
MTRMWS
METAR KMWS 270400Z 26005G07KT 23/06 RMK SNOW DEPTH  M





000
SAUS46 KLOX 270358
MTR9L2
METAR K9L2 270355Z AUTO 22017G24KT 10SM CLR 30/07 A2995 RMK AO2 PK
WND 23028/0301 SLP117 T03000072 $





000
SAUS46 KLOX 270354
MTRMWS
METAR KMWS 270345Z 26505G07KT 23/06 RMK SNOW DEPTH  M





000
SAUS46 KLOX 270354
MTRLAX
METAR KLAX 270353Z 25007KT 10SM SCT009 SCT150 20/17 A2997 RMK AO2
SLP146 T02000172 $





000
SAUS46 KLOX 270352
MTRSMX
METAR KSMX 270351Z AUTO 30003KT 9SM CLR 18/14 A2997 RMK AO2 SLP150
T01780144 TSNO $





000
SAUS46 KLOX 270349
MTRSDB
METAR KSDB 270348Z AUTO 21005KT 10SM CLR 24/05 A3018 RMK AO2 SLP157
T02390050





000
SAUS46 KLOX 270348
MTRCQT
METAR KCQT 270347Z AUTO 00000KT 10SM CLR 21/17 A2996 RMK AO2 SLP142
T02110172 $





000
SAUS46 KLOX 270336
MTRMWS
METAR KMWS 270330Z 23500G00KT MM/06 RMK SNOW DEPTH  M





000
SAUS46 KLOX 270315
MTRMWS
METAR KMWS 270300Z 24504G04KT 24/07 RMK SNOW DEPTH  M





000
SAUS46 KLOX 270258
MTR9L2
METAR K9L2 270255Z AUTO 23017G22KT 10SM CLR 33/06 A2993 RMK AO2
SLP109 T03280056 53006 $





000
SAUS46 KLOX 270255
MTRLAX
METAR KLAX 270253Z COR 25008KT 9SM FEW010 SCT130 SCT200 21/17 A2995
RMK AO2 SLP141 T02060172 53009 $





000
SAUS46 KLOX 270254
MTRMWS
METAR KMWS 270245Z 24504G04KT 25/07 RMK SNOW DEPTH  M





000
SAUS46 KLOX 270253
MTRSMX
METAR KSMX 270251Z 29005KT 9SM FEW005 BKN200 18/14 A2996 RMK AO2
SLP146 T01830144 55001 $





000
SAUS46 KLOX 270249
MTRSDB
METAR KSDB 270248Z AUTO 23006KT 10SM CLR 27/02 A3016 RMK AO2 SLP151
T02670022 53005





000
SAUS46 KLOX 270248
MTRCQT
METAR KCQT 270247Z AUTO 00000KT 10SM CLR 22/17 A2993 RMK AO2 SLP134
T02220172 53009 $





000
SAUS46 KLOX 270246
MTRSMX
SPECI KSMX 270244Z 30005KT 9SM CLR 18/14 A2996 RMK AO2 $





000
SAUS46 KLOX 270236
MTRMWS
METAR KMWS 270230Z 23500G00KT MM/07 RMK SNOW DEPTH  M





000
SAUS46 KLOX 270215
MTRMWS
METAR KMWS 270200Z 24503G05KT 27/08 RMK SNOW DEPTH  M





000
SAUS46 KLOX 270201
MTRSMX
METAR KSMX 270151Z COR 32011KT 10SM SCT200 21/14 A2995 RMK AO2
SLP143 T02060144 $





000
SAUS46 KLOX 270158
MTR9L2
METAR K9L2 270155Z AUTO 23017KT 10SM CLR 36/07 A2991 RMK AO2 SLP102
T03560067 $





000
SAUS46 KLOX 270155
MTRLAX
METAR KLAX 270153Z 24009KT 9SM FEW010 SCT150 SCT250 21/17 A2992 RMK
AO2 SLP132 T02110172 $





000
SAUS46 KLOX 270154
MTRMWS
METAR KMWS 270145Z 24503G05KT 28/08 RMK SNOW DEPTH  M





000
SAUS46 KLOX 270152
MTRSMX
METAR KSMX 270151Z 32011KT 10SM CLR 21/14 A2995 RMK AO2 SLP143
T02060144 $





000
SAUS46 KLOX 270149
MTRCQT
METAR KCQT 270147Z AUTO VRB03KT 10SM CLR 24/17 A2991 RMK AO2 SLP125
T02440172 $





000
SAUS46 KLOX 270149
MTRSDB
METAR KSDB 270148Z AUTO 19008KT 10SM CLR 29/01 A3014 RMK AO2 SLP145
T02890006





000
SAUS46 KLOX 270136
MTRMWS
METAR KMWS 270130Z 23500G00KT MM/08 RMK SNOW DEPTH  M





000
SAUS46 KLOX 270116
MTRSDB
SPECI KSDB 270115Z AUTO 21010KT 10SM FEW002 31/03 A3014 RMK AO2
T03060033





000
SAUS46 KLOX 270115
MTRMWS
METAR KMWS 270100Z 26003G06KT 29/11 RMK SNOW DEPTH  M





000
SAUS46 KLOX 270100
MTR9L2
METAR K9L2 270055Z AUTO 23018G24KT 10SM CLR 37/06 A2990 RMK AO2
SLP099 T03720061 $





000
SAUS46 KLOX 270054
MTRMWS
METAR KMWS 270045Z 25504G07KT 28/10 RMK SNOW DEPTH  M





000
SAUS46 KLOX 270054
MTRLAX
METAR KLAX 270053Z 26010KT 10SM FEW010 SCT090 SCT150 SCT250 22/17
A2992 RMK AO2 SLP129 T02220172 $





000
SAUS46 KLOX 270053
MTRSMX
METAR KSMX 270051Z 32008KT 10SM SCT200 23/15 A2995 RMK AO2 SLP143
T02280150





000
SAUS46 KLOX 270049
MTRSDB
METAR KSDB 270048Z AUTO 18009G19KT 10SM CLR 31/04 A3014 RMK AO2
SLP139 T03110044





000
SAUS46 KLOX 270048
MTRCQT
METAR KCQT 270047Z AUTO VRB05KT 10SM CLR 26/17 A2990 RMK AO2 SLP122
T02560172 $





000
SAUS46 KLOX 270036
MTRMWS
METAR KMWS 270030Z 23500G00KT MM/09 RMK SNOW DEPTH  M





000
SAUS46 KLOX 270015
MTRMWS
METAR KMWS 270000Z 23507G08KT 28/11 RMK SNOW DEPTH  M





000
SAUS46 KLOX 270000
MTR9L2
METAR K9L2 262355Z AUTO 23009G17KT 10SM CLR 38/05 A2991 RMK AO2
SLP101 T03830050 10394 20350 58016 TSNO $





000
SAUS46 KLOX 262354
MTRMWS
METAR KMWS 262345Z 23008G10KT 27/13 RMK SNOW DEPTH  M





000
SAUS46 KLOX 262354
MTRLAX
METAR KLAX 262353Z 26011KT 10SM FEW010 SCT150 SCT250 23/17 A2992 RMK
AO2 SLP131 T02280172 10244 20217 58016 $





000
SAUS46 KLOX 262352
MTRSMX
METAR KSMX 262351Z 31010KT 10SM SCT200 24/16 A2996 RMK AO2 SLP145
T02390156 10250 20222 58005





000
SAUS46 KLOX 262349
MTRCQT
METAR KCQT 262347Z AUTO VRB04KT 10SM CLR 26/17 A2991 RMK AO2 SLP124
T02610172 10300 20261 58013 $





000
SAUS46 KLOX 262349
MTRSDB
METAR KSDB 262348Z AUTO 18014G20KT 10SM CLR 32/03 A3014 RMK AO2
SLP140 T03220028 10344 20289 58007





000
SAUS46 KLOX 262336
MTRMWS
METAR KMWS 262330Z 23500G00KT MM/13 RMK SNOW DEPTH  M





000
SAUS46 KLOX 262315
MTRMWS
METAR KMWS 262300Z 23506G08KT 27/13 RMK SNOW DEPTH  M





000
SAUS46 KLOX 262259
MTR9L2
METAR K9L2 262255Z AUTO 23009G20KT 200V260 10SM CLR 38/04 A2992 RMK
AO2 SLP106 T03830044 TSNO $





000
SAUS46 KLOX 262254
MTRMWS
METAR KMWS 262245Z 22506G08KT 27/12 RMK SNOW DEPTH  M





000
SAUS46 KLOX 262254
MTRLAX
METAR KLAX 262253Z 27012KT 10SM FEW005 SCT090 SCT200 23/17 A2994 RMK
AO2 SLP138 T02280172 $





000
SAUS46 KLOX 262252
MTRSMX
METAR KSMX 262251Z 33007KT 9SM SCT200 23/15 A2997 RMK AO2 SLP148
T02330150





000
SAUS46 KLOX 262250
MTRSDB
METAR KSDB 262248Z AUTO 18015G23KT 10SM CLR 33/02 A3015 RMK AO2
SLP142 T03280022





000
SAUS46 KLOX 262249
MTRCQT
METAR KCQT 262247Z AUTO VRB04KT 10SM CLR 27/17 A2992 RMK AO2 SLP130
T02720172 $





000
SAUS46 KLOX 262236
MTRMWS
METAR KMWS 262230Z 23500G00KT MM/13 RMK SNOW DEPTH  M





000
SAUS46 KLOX 262215
MTRMWS
METAR KMWS 262200Z 22506G09KT 29/12 RMK SNOW DEPTH  M





000
SAUS46 KLOX 262158
MTR9L2
METAR K9L2 262155Z AUTO 22014G18KT 10SM CLR 38/03 A2994 RMK AO2
SLP114 T03830028 $





000
SAUS46 KLOX 262154
MTRMWS
METAR KMWS 262145Z 22005G07KT 29/12 RMK SNOW DEPTH  M





000
SAUS46 KLOX 262154
MTRLAX
METAR KLAX 262153Z 26011KT 10SM FEW005 SCT090 SCT230 23/17 A2996 RMK
AO2 SLP143 T02330172 $





000
SAUS46 KLOX 262152
MTRSMX
METAR KSMX 262151Z 32009KT 10SM SCT200 24/16 A2998 RMK AO2 SLP152
T02390156





000
SAUS46 KLOX 262149
MTRSDB
METAR KSDB 262148Z AUTO 17016G23KT 10SM CLR 33/M01 A3016 RMK AO2 PK
WND 17026/2117 SLP145 T03331006





000
SAUS46 KLOX 262148
MTRCQT
METAR KCQT 262147Z AUTO 27008KT 10SM CLR 27/17 A2994 RMK AO2 SLP134
T02720172 $





000
SAUS46 KLOX 262136
MTRMWS
METAR KMWS 262130Z 23500G00KT MM/12 RMK SNOW DEPTH  M





000
SAUS46 KLOX 262115
MTRMWS
METAR KMWS 262100Z 20505G07KT 27/12 RMK SNOW DEPTH  M





000
SAUS46 KLOX 262100
MTR9L2
METAR K9L2 262055Z AUTO 24013G19KT 10SM CLR 39/M02 A2996 RMK AO2 PK
WND 23026/2003 SLP116 T03891022 58015 $





000
SAUS46 KLOX 262054
MTRMWS
METAR KMWS 262045Z 20505G07KT 28/12 RMK SNOW DEPTH  M





000
SAUS46 KLOX 262054
MTRLAX
METAR KLAX 262053Z 26012KT 10SM FEW004 SCT090 SCT230 24/17 A2997 RMK
AO2 SLP147 T02390172 56010 $





000
SAUS46 KLOX 262053
MTRSMX
METAR KSMX 262051Z 31012KT 10SM SCT200 23/15 A2998 RMK AO2 SLP151
T02280150 57002 $





000
SAUS46 KLOX 262049
MTRSDB
METAR KSDB 262048Z AUTO 18017G22KT 10SM CLR 33/00 A3017 RMK AO2
SLP147 T03280000 58006





000
SAUS46 KLOX 262048
MTRCQT
METAR KCQT 262047Z AUTO VRB04KT 10SM CLR 29/18 A2994 RMK AO2 SLP136
T02940178 58012 $





000
SAUS46 KLOX 262036
MTRMWS
METAR KMWS 262030Z 23500G00KT MM/11 RMK SNOW DEPTH  M





000
SAUS46 KLOX 262015
MTRMWS
METAR KMWS 262000Z 21505G07KT 28/10 RMK SNOW DEPTH  M





000
SAUS46 KLOX 261959
MTR9L2
METAR K9L2 261955Z AUTO 22011G17KT 10SM CLR 38/M07 A2998 RMK AO2
SLP124 T03781072 $





000
SAUS46 KLOX 261954
MTRMWS
METAR KMWS 261945Z 23004G05KT 29/10 RMK SNOW DEPTH  M





000
SAUS46 KLOX 261954
MTRLAX
METAR KLAX 261953Z 28007KT 10SM FEW005 SCT090 SCT130 BKN220 BKN300
23/17 A2998 RMK AO2 SLP149 T02330172 $





000
SAUS46 KLOX 261953
MTRSMX
METAR KSMX 261951Z 31012KT 10SM SCT200 24/15 A2998 RMK AO2 SLP152
T02390150





000
SAUS46 KLOX 261949
MTRSDB
METAR KSDB 261948Z AUTO 18016G23KT 10SM CLR 33/01 A3018 RMK AO2
SLP151 T03280011





000
SAUS46 KLOX 261948
MTRCQT
METAR KCQT 261947Z AUTO VRB03KT 10SM CLR 28/18 A2995 RMK AO2 SLP140
T02830178 $





000
SAUS46 KLOX 261936
MTRMWS
METAR KMWS 261930Z 23500G00KT MM/08 RMK SNOW DEPTH  M





000
SAUS46 KLOX 261915
MTRMWS
METAR KMWS 261900Z 24004G06KT 29/11 RMK SNOW DEPTH  M





000
SAUS46 KLOX 261858
MTR9L2
METAR K9L2 261855Z AUTO 21011KT 10SM CLR 36/M07 A3000 RMK AO2 SLP131
T03561072 $





000
SAUS46 KLOX 261855
MTRLAX
METAR KLAX 261853Z 27009KT 10SM FEW005 SCT130 SCT220 BKN300 22/17
A2999 RMK AO2 SLP155 T02220172 $





000
SAUS46 KLOX 261854
MTRMWS
METAR KMWS 261845Z 24504G06KT 29/10 RMK SNOW DEPTH  M





000
SAUS46 KLOX 261852
MTRSMX
METAR KSMX 261851Z 30007KT 10SM SCT200 24/16 A2998 RMK AO2 SLP151
T02440156





000
SAUS46 KLOX 261849
MTRSDB
METAR KSDB 261848Z AUTO 16012KT 10SM CLR 32/01 A3019 RMK AO2 SLP156
T03170006





000
SAUS46 KLOX 261848
MTRCQT
METAR KCQT 261847Z AUTO VRB04KT 10SM CLR 27/18 A2997 RMK AO2 SLP146
T02720183 $





000
SAUS46 KLOX 261815
MTRMWS
METAR KMWS 261800Z 21503G05KT 28/07 RMK SNOW DEPTH  M





000
SAUS46 KLOX 261800
MTR9L2
METAR K9L2 261755Z AUTO 21011G16KT 10SM CLR 35/M03 A3000 RMK AO2
SLP134 T03501028 10350 20233 53005 $





000
SAUS46 KLOX 261754
MTRMWS
METAR KMWS 261745Z 23503G04KT 29/06 RMK SNOW DEPTH  M





000
SAUS46 KLOX 261754
MTRLAX
METAR KLAX 261753Z 27009KT 8SM BCFG SCT005 BKN140 BKN230 22/17 A3000
RMK AO2 SLP158 VIS SW-NW 2 1/2 T02170172 10222 20183 51015 $





000
SAUS46 KLOX 261753
MTRSMX
METAR KSMX 261751Z VRB05KT 7SM SCT200 23/16 A2998 RMK AO2 SLP153
T02280156 10233 20167 51006





000
SAUS46 KLOX 261749
MTRSDB
METAR KSDB 261748Z AUTO 18016G21KT 10SM CLR 29/01 A3019 RMK AO2
SLP159 T02890011 10294 20217 51010





000
SAUS46 KLOX 261748
MTRCQT
METAR KCQT 261747Z AUTO 30004KT 9SM CLR 27/18 A2998 RMK AO2 SLP148
T02720183 10272 20200 51011





000
SAUS46 KLOX 261739
MTRLAX
SPECI KLAX 261738Z 28008KT 7SM BCFG SCT004 BKN140 BKN230 22/17 A3000
RMK AO2 VIS SW-NW 1 1/2 $





000
SAUS46 KLOX 261736
MTRMWS
METAR KMWS 261730Z 23500G00KT MM/03 RMK SNOW DEPTH  M





000
SAUS46 KLOX 261715
MTRMWS
METAR KMWS 261700Z 02000G02KT 26/00 RMK SNOW DEPTH  M





000
SAUS46 KLOX 261712
MTRLAX
SPECI KLAX 261711Z 27007KT 4SM HZ BKN005 BKN170 OVC230 21/17 A3000
RMK AO2 $





    US Dept of Commerce
    National Oceanic and Atmospheric Administration
    National Weather Service
    1325 East West Highway
    Silver Spring, MD 20910
    Page Author: NWS Internet Services Team
Disclaimer
Information Quality
Credits
Glossary
Privacy Policy
Freedom of Information Act (FOIA)
About Us
Career Opportunities